<?xml version="1.0" encoding="UTF-8" standalone="no" ?>
<gpx xmlns="http://www.topografix.com/GPX/1/1" creator="www.plotaroute.com" version="1.1"  xmlns:xsi="http://www.w3.org/2001/XMLSchema-instance" xsi:schemaLocation="http://www.topografix.com/GPX/1/1 http://www.topografix.com/GPX/1/1/gpx.xsd">
<metadata>
<desc>Route created on plotaroute.com</desc>
</metadata>
<wpt lat="31.671606" lon="34.92478">
<time>2023-12-27T00:10:05Z</time>
<name>Плавно пов</name>
<cmt>Плавно поверните налево</cmt>
<desc>Плавно поверните налево</desc>
<sym>Left_slight</sym>
<type>Waypoint</type>
</wpt>
<wpt lat="31.671668" lon="34.926526">
<time>2023-12-27T00:10:38Z</time>
<name>Поверните </name>
<cmt>Поверните направо</cmt>
<desc>Поверните направо</desc>
<sym>Right</sym>
<type>Waypoint</type>
</wpt>
<wpt lat="31.671116" lon="34.926191">
<time>2023-12-27T00:10:51Z</time>
<name>Держитесь </name>
<cmt>Держитесь правее</cmt>
<desc>Держитесь правее</desc>
<sym>Straight</sym>
<type>Waypoint</type>
</wpt>
<wpt lat="31.66798" lon="34.92096">
<time>2023-12-27T00:13:12Z</time>
<name>Держитесь </name>
<cmt>Держитесь правее</cmt>
<desc>Держитесь правее</desc>
<sym>Left_slight</sym>
<type>Waypoint</type>
</wpt>
<wpt lat="31.66798" lon="34.92096">
<time>2023-12-27T00:13:12Z</time>
<name>Резко пове</name>
<cmt>Резко поверните направо</cmt>
<desc>Резко поверните направо</desc>
<sym>Right_sharp</sym>
<type>Waypoint</type>
</wpt>
<wpt lat="31.647583" lon="34.918061">
<time>2023-12-27T00:22:51Z</time>
<name>Держитесь </name>
<cmt>Держитесь левее</cmt>
<desc>Держитесь левее</desc>
<sym>Left_slight</sym>
<type>Waypoint</type>
</wpt>
<wpt lat="31.646123" lon="34.924954">
<time>2023-12-27T00:25:52Z</time>
<name>Держитесь </name>
<cmt>Держитесь правее</cmt>
<desc>Держитесь правее</desc>
<sym>Straight</sym>
<type>Waypoint</type>
</wpt>
<wpt lat="31.646174" lon="34.925149">
<time>2023-12-27T00:25:56Z</time>
<name>Поверните </name>
<cmt>Поверните налево на 38</cmt>
<desc>Поверните налево на 38</desc>
<sym>Left</sym>
<type>Waypoint</type>
</wpt>
<wpt lat="31.646523" lon="34.925381">
<time>2023-12-27T00:26:04Z</time>
<name>Поверните </name>
<cmt>Поверните направо на 3543</cmt>
<desc>Поверните направо на 3543</desc>
<sym>Right</sym>
<type>Waypoint</type>
</wpt>
<wpt lat="31.636989" lon="34.935612">
<time>2023-12-27T00:30:45Z</time>
<name>Поверните </name>
<cmt>Поверните направо</cmt>
<desc>Поверните направо</desc>
<sym>Right</sym>
<type>Waypoint</type>
</wpt>
<wpt lat="31.635468" lon="34.936213">
<time>2023-12-27T00:31:19Z</time>
<name>Поверните </name>
<cmt>Поверните налево</cmt>
<desc>Поверните налево</desc>
<sym>Left</sym>
<type>Waypoint</type>
</wpt>
<wpt lat="31.630362" lon="34.944325">
<time>2023-12-27T00:34:15Z</time>
<name>Поверните </name>
<cmt>Поверните направо</cmt>
<desc>Поверните направо</desc>
<sym>Right</sym>
<type>Waypoint</type>
</wpt>
<wpt lat="31.61996" lon="34.927031">
<time>2023-12-27T00:40:52Z</time>
<name>Держитесь </name>
<cmt>Держитесь левее</cmt>
<desc>Держитесь левее</desc>
<sym>Left_slight</sym>
<type>Waypoint</type>
</wpt>
<wpt lat="31.618289" lon="34.926948">
<time>2023-12-27T00:41:28Z</time>
<name>Держитесь </name>
<cmt>Держитесь правее</cmt>
<desc>Держитесь правее</desc>
<sym>Straight</sym>
<type>Waypoint</type>
</wpt>
<wpt lat="31.617027" lon="34.927549">
<time>2023-12-27T00:41:56Z</time>
<name>Плавно пов</name>
<cmt>Плавно поверните налево</cmt>
<desc>Плавно поверните налево</desc>
<sym>Left_slight</sym>
<type>Waypoint</type>
</wpt>
<wpt lat="31.612227" lon="34.954108">
<time>2023-12-27T00:50:08Z</time>
<name>Резко пове</name>
<cmt>Резко поверните направо</cmt>
<desc>Резко поверните направо</desc>
<sym>Right_sharp</sym>
<type>Waypoint</type>
</wpt>
<wpt lat="31.618023" lon="34.970179">
<time>2023-12-27T00:58:08Z</time>
<name>Держитесь </name>
<cmt>Держитесь левее</cmt>
<desc>Держитесь левее</desc>
<sym>Straight</sym>
<type>Waypoint</type>
</wpt>
<wpt lat="31.620329" lon="34.967309">
<time>2023-12-27T00:59:20Z</time>
<name>Поверните </name>
<cmt>Поверните налево</cmt>
<desc>Поверните налево</desc>
<sym>Left</sym>
<type>Waypoint</type>
</wpt>
<wpt lat="31.621558" lon="34.971512">
<time>2023-12-27T01:00:46Z</time>
<name>Держитесь </name>
<cmt>Держитесь левее</cmt>
<desc>Держитесь левее</desc>
<sym>Left_slight</sym>
<type>Waypoint</type>
</wpt>
<wpt lat="31.62352" lon="34.973029">
<time>2023-12-27T01:01:33Z</time>
<name>Поверните </name>
<cmt>Поверните направо</cmt>
<desc>Поверните направо</desc>
<sym>Right</sym>
<type>Waypoint</type>
</wpt>
<wpt lat="31.66329" lon="34.93679">
<time>2023-12-27T01:43:53Z</time>
<name>FINISH</name>
<cmt>FINISH</cmt>
<desc>FINISH</desc>
<sym>Flag, Blue</sym>
<type>Waypoint</type>
</wpt>
<trk>
<name>BritaniaAdulam-35km600m</name>
<trkseg>
<trkpt lat="31.66324" lon="34.93659">
<ele>294</ele>
<time>2023-12-27T00:00:00Z</time></trkpt>
<trkpt lat="31.66323" lon="34.93643">
<ele>292</ele>
<time>2023-12-27T00:00:03Z</time></trkpt>
<trkpt lat="31.66334" lon="34.93641">
<ele>291</ele>
<time>2023-12-27T00:00:05Z</time></trkpt>
<trkpt lat="31.66344" lon="34.93635">
<ele>291</ele>
<time>2023-12-27T00:00:07Z</time></trkpt>
<trkpt lat="31.66371" lon="34.93603">
<ele>289</ele>
<time>2023-12-27T00:00:15Z</time></trkpt>
<trkpt lat="31.66391" lon="34.93586">
<ele>289</ele>
<time>2023-12-27T00:00:20Z</time></trkpt>
<trkpt lat="31.66413" lon="34.93571">
<ele>290</ele>
<time>2023-12-27T00:00:25Z</time></trkpt>
<trkpt lat="31.66418" lon="34.93565">
<ele>290</ele>
<time>2023-12-27T00:00:26Z</time></trkpt>
<trkpt lat="31.66426" lon="34.93554">
<ele>290</ele>
<time>2023-12-27T00:00:29Z</time></trkpt>
<trkpt lat="31.66432" lon="34.93538">
<ele>290</ele>
<time>2023-12-27T00:00:32Z</time></trkpt>
<trkpt lat="31.66433" lon="34.93525">
<ele>289</ele>
<time>2023-12-27T00:00:34Z</time></trkpt>
<trkpt lat="31.6644" lon="34.93471">
<ele>288</ele>
<time>2023-12-27T00:00:43Z</time></trkpt>
<trkpt lat="31.6645" lon="34.93436">
<ele>289</ele>
<time>2023-12-27T00:00:50Z</time></trkpt>
<trkpt lat="31.66455" lon="34.93421">
<ele>290</ele>
<time>2023-12-27T00:00:52Z</time></trkpt>
<trkpt lat="31.66471" lon="34.93389">
<ele>291</ele>
<time>2023-12-27T00:00:59Z</time></trkpt>
<trkpt lat="31.66494" lon="34.93348">
<ele>289</ele>
<time>2023-12-27T00:01:07Z</time></trkpt>
<trkpt lat="31.66508" lon="34.93319">
<ele>288</ele>
<time>2023-12-27T00:01:13Z</time></trkpt>
<trkpt lat="31.6654" lon="34.93241">
<ele>283</ele>
<time>2023-12-27T00:01:28Z</time></trkpt>
<trkpt lat="31.66547" lon="34.93227">
<ele>283</ele>
<time>2023-12-27T00:01:30Z</time></trkpt>
<trkpt lat="31.66553" lon="34.9322">
<ele>282</ele>
<time>2023-12-27T00:01:32Z</time></trkpt>
<trkpt lat="31.66563" lon="34.9321">
<ele>282</ele>
<time>2023-12-27T00:01:35Z</time></trkpt>
<trkpt lat="31.66586" lon="34.93198">
<ele>281</ele>
<time>2023-12-27T00:01:40Z</time></trkpt>
<trkpt lat="31.66612" lon="34.93194">
<ele>280</ele>
<time>2023-12-27T00:01:45Z</time></trkpt>
<trkpt lat="31.66626" lon="34.93195">
<ele>280</ele>
<time>2023-12-27T00:01:48Z</time></trkpt>
<trkpt lat="31.6665" lon="34.932">
<ele>279</ele>
<time>2023-12-27T00:01:53Z</time></trkpt>
<trkpt lat="31.66664" lon="34.93208">
<ele>279</ele>
<time>2023-12-27T00:01:56Z</time></trkpt>
<trkpt lat="31.66683" lon="34.93228">
<ele>279</ele>
<time>2023-12-27T00:02:01Z</time></trkpt>
<trkpt lat="31.66727" lon="34.93301">
<ele>281</ele>
<time>2023-12-27T00:02:16Z</time></trkpt>
<trkpt lat="31.66733" lon="34.93309">
<ele>281</ele>
<time>2023-12-27T00:02:18Z</time></trkpt>
<trkpt lat="31.66751" lon="34.93328">
<ele>281</ele>
<time>2023-12-27T00:02:23Z</time></trkpt>
<trkpt lat="31.66771" lon="34.93338">
<ele>280</ele>
<time>2023-12-27T00:02:27Z</time></trkpt>
<trkpt lat="31.66815" lon="34.93258">
<ele>276</ele>
<time>2023-12-27T00:02:43Z</time></trkpt>
<trkpt lat="31.66804" lon="34.93247">
<ele>276</ele>
<time>2023-12-27T00:02:46Z</time></trkpt>
<trkpt lat="31.6681" lon="34.93235">
<ele>277</ele>
<time>2023-12-27T00:02:49Z</time></trkpt>
<trkpt lat="31.66822" lon="34.93237">
<ele>278</ele>
<time>2023-12-27T00:02:51Z</time></trkpt>
<trkpt lat="31.66845" lon="34.93265">
<ele>277</ele>
<time>2023-12-27T00:02:58Z</time></trkpt>
<trkpt lat="31.6689" lon="34.93303">
<ele>275</ele>
<time>2023-12-27T00:03:09Z</time></trkpt>
<trkpt lat="31.6691" lon="34.93307">
<ele>275</ele>
<time>2023-12-27T00:03:13Z</time></trkpt>
<trkpt lat="31.66949" lon="34.93278">
<ele>281</ele>
<time>2023-12-27T00:03:22Z</time></trkpt>
<trkpt lat="31.66991" lon="34.93274">
<ele>284</ele>
<time>2023-12-27T00:03:31Z</time></trkpt>
<trkpt lat="31.6700939" lon="34.9327575">
<ele>284</ele>
<time>2023-12-27T00:03:34Z</time></trkpt>
<trkpt lat="31.67033" lon="34.93278">
<ele>284</ele>
<time>2023-12-27T00:03:39Z</time></trkpt>
<trkpt lat="31.67096" lon="34.93352">
<ele>280</ele>
<time>2023-12-27T00:03:57Z</time></trkpt>
<trkpt lat="31.67102" lon="34.9336">
<ele>280</ele>
<time>2023-12-27T00:03:59Z</time></trkpt>
<trkpt lat="31.6715" lon="34.934">
<ele>279</ele>
<time>2023-12-27T00:04:11Z</time></trkpt>
<trkpt lat="31.67182" lon="34.93421">
<ele>278</ele>
<time>2023-12-27T00:04:18Z</time></trkpt>
<trkpt lat="31.67196" lon="34.93429">
<ele>278</ele>
<time>2023-12-27T00:04:21Z</time></trkpt>
<trkpt lat="31.67217" lon="34.93433">
<ele>278</ele>
<time>2023-12-27T00:04:25Z</time></trkpt>
<trkpt lat="31.67255" lon="34.93432">
<ele>281</ele>
<time>2023-12-27T00:04:33Z</time></trkpt>
<trkpt lat="31.6726097" lon="34.9343051">
<ele>281</ele>
<time>2023-12-27T00:04:34Z</time></trkpt>
<trkpt lat="31.67263" lon="34.9343">
<ele>282</ele>
<time>2023-12-27T00:04:34Z</time></trkpt>
<trkpt lat="31.67274" lon="34.93421">
<ele>283</ele>
<time>2023-12-27T00:04:37Z</time></trkpt>
<trkpt lat="31.67279" lon="34.93411">
<ele>284</ele>
<time>2023-12-27T00:04:39Z</time></trkpt>
<trkpt lat="31.67317" lon="34.93378">
<ele>290</ele>
<time>2023-12-27T00:04:49Z</time></trkpt>
<trkpt lat="31.67381" lon="34.93309">
<ele>296</ele>
<time>2023-12-27T00:05:06Z</time></trkpt>
<trkpt lat="31.67423" lon="34.93263">
<ele>296</ele>
<time>2023-12-27T00:05:18Z</time></trkpt>
<trkpt lat="31.6746" lon="34.93217">
<ele>300</ele>
<time>2023-12-27T00:05:28Z</time></trkpt>
<trkpt lat="31.67483" lon="34.93191">
<ele>301</ele>
<time>2023-12-27T00:05:35Z</time></trkpt>
<trkpt lat="31.67503" lon="34.93157">
<ele>302</ele>
<time>2023-12-27T00:05:42Z</time></trkpt>
<trkpt lat="31.67503" lon="34.93137">
<ele>304</ele>
<time>2023-12-27T00:05:45Z</time></trkpt>
<trkpt lat="31.67512" lon="34.93099">
<ele>307</ele>
<time>2023-12-27T00:05:52Z</time></trkpt>
<trkpt lat="31.67534" lon="34.9308">
<ele>307</ele>
<time>2023-12-27T00:05:57Z</time></trkpt>
<trkpt lat="31.67566" lon="34.93064">
<ele>307</ele>
<time>2023-12-27T00:06:04Z</time></trkpt>
<trkpt lat="31.67595" lon="34.93043">
<ele>309</ele>
<time>2023-12-27T00:06:11Z</time></trkpt>
<trkpt lat="31.67624" lon="34.93047">
<ele>310</ele>
<time>2023-12-27T00:06:17Z</time></trkpt>
<trkpt lat="31.67654" lon="34.93048">
<ele>311</ele>
<time>2023-12-27T00:06:23Z</time></trkpt>
<trkpt lat="31.67687" lon="34.93045">
<ele>313</ele>
<time>2023-12-27T00:06:30Z</time></trkpt>
<trkpt lat="31.67711" lon="34.9304">
<ele>315</ele>
<time>2023-12-27T00:06:35Z</time></trkpt>
<trkpt lat="31.67731" lon="34.93045">
<ele>316</ele>
<time>2023-12-27T00:06:39Z</time></trkpt>
<trkpt lat="31.67749" lon="34.93062">
<ele>316</ele>
<time>2023-12-27T00:06:43Z</time></trkpt>
<trkpt lat="31.6776" lon="34.93061">
<ele>316</ele>
<time>2023-12-27T00:06:45Z</time></trkpt>
<trkpt lat="31.67761" lon="34.93017">
<ele>319</ele>
<time>2023-12-27T00:06:53Z</time></trkpt>
<trkpt lat="31.67757" lon="34.92985">
<ele>321</ele>
<time>2023-12-27T00:06:59Z</time></trkpt>
<trkpt lat="31.6776028" lon="34.9295259">
<ele>325</ele>
<time>2023-12-27T00:07:04Z</time></trkpt>
<trkpt lat="31.67766" lon="34.92896">
<ele>331</ele>
<time>2023-12-27T00:07:14Z</time></trkpt>
<trkpt lat="31.67762" lon="34.92822">
<ele>335</ele>
<time>2023-12-27T00:07:26Z</time></trkpt>
<trkpt lat="31.67762" lon="34.92789">
<ele>333</ele>
<time>2023-12-27T00:07:32Z</time></trkpt>
<trkpt lat="31.67767" lon="34.92761">
<ele>332</ele>
<time>2023-12-27T00:07:37Z</time></trkpt>
<trkpt lat="31.67771" lon="34.92762">
<ele>332</ele>
<time>2023-12-27T00:07:38Z</time></trkpt>
<trkpt lat="31.67771" lon="34.9276">
<ele>332</ele>
<time>2023-12-27T00:07:38Z</time></trkpt>
<trkpt lat="31.67709" lon="34.92738">
<ele>332</ele>
<time>2023-12-27T00:07:51Z</time></trkpt>
<trkpt lat="31.67685" lon="34.92732">
<ele>332</ele>
<time>2023-12-27T00:07:56Z</time></trkpt>
<trkpt lat="31.67653" lon="34.92715">
<ele>333</ele>
<time>2023-12-27T00:08:03Z</time></trkpt>
<trkpt lat="31.67652" lon="34.92715">
<ele>333</ele>
<time>2023-12-27T00:08:03Z</time></trkpt>
<trkpt lat="31.67625" lon="34.92702">
<ele>335</ele>
<time>2023-12-27T00:08:09Z</time></trkpt>
<trkpt lat="31.67615" lon="34.92688">
<ele>335</ele>
<time>2023-12-27T00:08:12Z</time></trkpt>
<trkpt lat="31.676" lon="34.9267">
<ele>335</ele>
<time>2023-12-27T00:08:16Z</time></trkpt>
<trkpt lat="31.67584" lon="34.9266">
<ele>336</ele>
<time>2023-12-27T00:08:20Z</time></trkpt>
<trkpt lat="31.67567" lon="34.92652">
<ele>336</ele>
<time>2023-12-27T00:08:24Z</time></trkpt>
<trkpt lat="31.67549" lon="34.92647">
<ele>336</ele>
<time>2023-12-27T00:08:27Z</time></trkpt>
<trkpt lat="31.67542" lon="34.92646">
<ele>336</ele>
<time>2023-12-27T00:08:29Z</time></trkpt>
<trkpt lat="31.6751" lon="34.92639">
<ele>336</ele>
<time>2023-12-27T00:08:35Z</time></trkpt>
<trkpt lat="31.67489" lon="34.92636">
<ele>337</ele>
<time>2023-12-27T00:08:40Z</time></trkpt>
<trkpt lat="31.67469" lon="34.92625">
<ele>337</ele>
<time>2023-12-27T00:08:44Z</time></trkpt>
<trkpt lat="31.67441" lon="34.92599">
<ele>335</ele>
<time>2023-12-27T00:08:51Z</time></trkpt>
<trkpt lat="31.67419" lon="34.9257">
<ele>332</ele>
<time>2023-12-27T00:08:58Z</time></trkpt>
<trkpt lat="31.67408" lon="34.92559">
<ele>333</ele>
<time>2023-12-27T00:09:01Z</time></trkpt>
<trkpt lat="31.674" lon="34.92545">
<ele>332</ele>
<time>2023-12-27T00:09:04Z</time></trkpt>
<trkpt lat="31.67397" lon="34.92537">
<ele>332</ele>
<time>2023-12-27T00:09:05Z</time></trkpt>
<trkpt lat="31.67391" lon="34.92486">
<ele>326</ele>
<time>2023-12-27T00:09:14Z</time></trkpt>
<trkpt lat="31.67387" lon="34.92474">
<ele>325</ele>
<time>2023-12-27T00:09:16Z</time></trkpt>
<trkpt lat="31.67381" lon="34.92463">
<ele>325</ele>
<time>2023-12-27T00:09:18Z</time></trkpt>
<trkpt lat="31.67373" lon="34.92455">
<ele>325</ele>
<time>2023-12-27T00:09:20Z</time></trkpt>
<trkpt lat="31.67357" lon="34.92447">
<ele>325</ele>
<time>2023-12-27T00:09:24Z</time></trkpt>
<trkpt lat="31.6732344" lon="34.9244448">
<ele>327</ele>
<time>2023-12-27T00:09:31Z</time></trkpt>
<trkpt lat="31.673138" lon="34.924434">
<ele>327</ele>
<time>2023-12-27T00:09:33Z</time></trkpt>
<trkpt lat="31.672025" lon="34.924481">
<ele>328</ele>
<time>2023-12-27T00:09:55Z</time></trkpt>
<trkpt lat="31.671938" lon="34.924522">
<ele>328</ele>
<time>2023-12-27T00:09:57Z</time></trkpt>
<trkpt lat="31.671807" lon="34.924584">
<ele>329</ele>
<time>2023-12-27T00:10:00Z</time></trkpt>
<trkpt lat="31.671606" lon="34.92478">
<ele>330</ele>
<time>2023-12-27T00:10:05Z</time></trkpt>
<trkpt lat="31.671569" lon="34.925119">
<ele>333</ele>
<time>2023-12-27T00:10:11Z</time></trkpt>
<trkpt lat="31.671593" lon="34.925373">
<ele>334</ele>
<time>2023-12-27T00:10:15Z</time></trkpt>
<trkpt lat="31.671746" lon="34.925751">
<ele>338</ele>
<time>2023-12-27T00:10:22Z</time></trkpt>
<trkpt lat="31.6717942" lon="34.9258279">
<ele>340</ele>
<time>2023-12-27T00:10:24Z</time></trkpt>
<trkpt lat="31.671874" lon="34.925873">
<ele>342</ele>
<time>2023-12-27T00:10:26Z</time></trkpt>
<trkpt lat="31.671856" lon="34.926269">
<ele>344</ele>
<time>2023-12-27T00:10:32Z</time></trkpt>
<trkpt lat="31.671786" lon="34.926448">
<ele>343</ele>
<time>2023-12-27T00:10:36Z</time></trkpt>
<trkpt lat="31.671694" lon="34.926509">
<ele>342</ele>
<time>2023-12-27T00:10:38Z</time></trkpt>
<trkpt lat="31.671668" lon="34.926526">
<ele>341</ele>
<time>2023-12-27T00:10:38Z</time></trkpt>
<trkpt lat="31.671579" lon="34.926468">
<ele>340</ele>
<time>2023-12-27T00:10:40Z</time></trkpt>
<trkpt lat="31.671342" lon="34.926411">
<ele>338</ele>
<time>2023-12-27T00:10:45Z</time></trkpt>
<trkpt lat="31.671116" lon="34.926191">
<ele>333</ele>
<time>2023-12-27T00:10:51Z</time></trkpt>
<trkpt lat="31.6709941" lon="34.9260942">
<ele>330</ele>
<time>2023-12-27T00:10:54Z</time></trkpt>
<trkpt lat="31.67088" lon="34.926">
<ele>327</ele>
<time>2023-12-27T00:10:57Z</time></trkpt>
<trkpt lat="31.67003" lon="34.92583">
<ele>320</ele>
<time>2023-12-27T00:11:14Z</time></trkpt>
<trkpt lat="31.66979" lon="34.92589">
<ele>322</ele>
<time>2023-12-27T00:11:19Z</time></trkpt>
<trkpt lat="31.66932" lon="34.92599">
<ele>324</ele>
<time>2023-12-27T00:11:29Z</time></trkpt>
<trkpt lat="31.66903" lon="34.92622">
<ele>324</ele>
<time>2023-12-27T00:11:36Z</time></trkpt>
<trkpt lat="31.66904" lon="34.92606">
<ele>325</ele>
<time>2023-12-27T00:11:38Z</time></trkpt>
<trkpt lat="31.66872" lon="34.92384">
<ele>334</ele>
<time>2023-12-27T00:12:17Z</time></trkpt>
<trkpt lat="31.66865" lon="34.92324">
<ele>338</ele>
<time>2023-12-27T00:12:27Z</time></trkpt>
<trkpt lat="31.66864" lon="34.92202">
<ele>340</ele>
<time>2023-12-27T00:12:48Z</time></trkpt>
<trkpt lat="31.66862" lon="34.92185">
<ele>340</ele>
<time>2023-12-27T00:12:51Z</time></trkpt>
<trkpt lat="31.66856" lon="34.92161">
<ele>341</ele>
<time>2023-12-27T00:12:55Z</time></trkpt>
<trkpt lat="31.66845" lon="34.92139">
<ele>341</ele>
<time>2023-12-27T00:13:00Z</time></trkpt>
<trkpt lat="31.668294" lon="34.921167">
<ele>342</ele>
<time>2023-12-27T00:13:04Z</time></trkpt>
<trkpt lat="31.668186" lon="34.921054">
<ele>340</ele>
<time>2023-12-27T00:13:07Z</time></trkpt>
<trkpt lat="31.668153" lon="34.9210351">
<ele>340</ele>
<time>2023-12-27T00:13:08Z</time></trkpt>
<trkpt lat="31.668045" lon="34.920977">
<ele>339</ele>
<time>2023-12-27T00:13:10Z</time></trkpt>
<trkpt lat="31.66798" lon="34.92096">
<ele>339</ele>
<time>2023-12-27T00:13:12Z</time></trkpt>
<trkpt lat="31.667976" lon="34.920957">
<ele>339</ele>
<time>2023-12-27T00:13:12Z</time></trkpt>
<trkpt lat="31.66798" lon="34.92096">
<ele>339</ele>
<time>2023-12-27T00:13:12Z</time></trkpt>
<trkpt lat="31.667869" lon="34.921009">
<ele>340</ele>
<time>2023-12-27T00:13:14Z</time></trkpt>
<trkpt lat="31.6678059" lon="34.921108">
<ele>342</ele>
<time>2023-12-27T00:13:16Z</time></trkpt>
<trkpt lat="31.6677247" lon="34.9212353">
<ele>344</ele>
<time>2023-12-27T00:13:19Z</time></trkpt>
<trkpt lat="31.66767" lon="34.92132">
<ele>346</ele>
<time>2023-12-27T00:13:21Z</time></trkpt>
<trkpt lat="31.66756" lon="34.92154">
<ele>350</ele>
<time>2023-12-27T00:13:25Z</time></trkpt>
<trkpt lat="31.66743" lon="34.92172">
<ele>353</ele>
<time>2023-12-27T00:13:29Z</time></trkpt>
<trkpt lat="31.66726" lon="34.92181">
<ele>355</ele>
<time>2023-12-27T00:13:33Z</time></trkpt>
<trkpt lat="31.66708" lon="34.92183">
<ele>356</ele>
<time>2023-12-27T00:13:37Z</time></trkpt>
<trkpt lat="31.66694" lon="34.92178">
<ele>356</ele>
<time>2023-12-27T00:13:40Z</time></trkpt>
<trkpt lat="31.66692" lon="34.92178">
<ele>356</ele>
<time>2023-12-27T00:13:40Z</time></trkpt>
<trkpt lat="31.66679" lon="34.92165">
<ele>355</ele>
<time>2023-12-27T00:13:43Z</time></trkpt>
<trkpt lat="31.66646" lon="34.92135">
<ele>349</ele>
<time>2023-12-27T00:13:52Z</time></trkpt>
<trkpt lat="31.66633" lon="34.92122">
<ele>347</ele>
<time>2023-12-27T00:13:55Z</time></trkpt>
<trkpt lat="31.66603" lon="34.9211">
<ele>347</ele>
<time>2023-12-27T00:14:02Z</time></trkpt>
<trkpt lat="31.66545" lon="34.92099">
<ele>345</ele>
<time>2023-12-27T00:14:13Z</time></trkpt>
<trkpt lat="31.66534" lon="34.92094">
<ele>344</ele>
<time>2023-12-27T00:14:16Z</time></trkpt>
<trkpt lat="31.66533" lon="34.92094">
<ele>344</ele>
<time>2023-12-27T00:14:16Z</time></trkpt>
<trkpt lat="31.66522" lon="34.9209">
<ele>344</ele>
<time>2023-12-27T00:14:18Z</time></trkpt>
<trkpt lat="31.6649" lon="34.92083">
<ele>341</ele>
<time>2023-12-27T00:14:25Z</time></trkpt>
<trkpt lat="31.66478" lon="34.92086">
<ele>340</ele>
<time>2023-12-27T00:14:27Z</time></trkpt>
<trkpt lat="31.66471" lon="34.92091">
<ele>339</ele>
<time>2023-12-27T00:14:29Z</time></trkpt>
<trkpt lat="31.66466" lon="34.92099">
<ele>339</ele>
<time>2023-12-27T00:14:31Z</time></trkpt>
<trkpt lat="31.66464" lon="34.92108">
<ele>339</ele>
<time>2023-12-27T00:14:32Z</time></trkpt>
<trkpt lat="31.66465" lon="34.92118">
<ele>341</ele>
<time>2023-12-27T00:14:34Z</time></trkpt>
<trkpt lat="31.66492" lon="34.92189">
<ele>353</ele>
<time>2023-12-27T00:14:47Z</time></trkpt>
<trkpt lat="31.66486" lon="34.92216">
<ele>354</ele>
<time>2023-12-27T00:14:52Z</time></trkpt>
<trkpt lat="31.66467" lon="34.9222">
<ele>352</ele>
<time>2023-12-27T00:14:56Z</time></trkpt>
<trkpt lat="31.66414" lon="34.92216">
<ele>345</ele>
<time>2023-12-27T00:15:06Z</time></trkpt>
<trkpt lat="31.66397" lon="34.92214">
<ele>344</ele>
<time>2023-12-27T00:15:10Z</time></trkpt>
<trkpt lat="31.66387" lon="34.9221">
<ele>343</ele>
<time>2023-12-27T00:15:12Z</time></trkpt>
<trkpt lat="31.66361" lon="34.92196">
<ele>339</ele>
<time>2023-12-27T00:15:18Z</time></trkpt>
<trkpt lat="31.66351" lon="34.92194">
<ele>338</ele>
<time>2023-12-27T00:15:20Z</time></trkpt>
<trkpt lat="31.66319" lon="34.92202">
<ele>339</ele>
<time>2023-12-27T00:15:26Z</time></trkpt>
<trkpt lat="31.663" lon="34.9221">
<ele>340</ele>
<time>2023-12-27T00:15:30Z</time></trkpt>
<trkpt lat="31.66285" lon="34.92186">
<ele>339</ele>
<time>2023-12-27T00:15:35Z</time></trkpt>
<trkpt lat="31.66274" lon="34.92135">
<ele>335</ele>
<time>2023-12-27T00:15:44Z</time></trkpt>
<trkpt lat="31.66247" lon="34.92077">
<ele>336</ele>
<time>2023-12-27T00:15:56Z</time></trkpt>
<trkpt lat="31.66247" lon="34.92076">
<ele>336</ele>
<time>2023-12-27T00:15:56Z</time></trkpt>
<trkpt lat="31.66233" lon="34.92048">
<ele>337</ele>
<time>2023-12-27T00:16:01Z</time></trkpt>
<trkpt lat="31.66225" lon="34.92019">
<ele>336</ele>
<time>2023-12-27T00:16:07Z</time></trkpt>
<trkpt lat="31.66202" lon="34.91983">
<ele>338</ele>
<time>2023-12-27T00:16:14Z</time></trkpt>
<trkpt lat="31.66196" lon="34.9197">
<ele>337</ele>
<time>2023-12-27T00:16:17Z</time></trkpt>
<trkpt lat="31.66188" lon="34.91964">
<ele>338</ele>
<time>2023-12-27T00:16:19Z</time></trkpt>
<trkpt lat="31.66163" lon="34.91953">
<ele>340</ele>
<time>2023-12-27T00:16:24Z</time></trkpt>
<trkpt lat="31.66162" lon="34.91953">
<ele>340</ele>
<time>2023-12-27T00:16:24Z</time></trkpt>
<trkpt lat="31.66157" lon="34.91951">
<ele>339</ele>
<time>2023-12-27T00:16:25Z</time></trkpt>
<trkpt lat="31.66147" lon="34.91951">
<ele>339</ele>
<time>2023-12-27T00:16:27Z</time></trkpt>
<trkpt lat="31.6614" lon="34.91959">
<ele>339</ele>
<time>2023-12-27T00:16:29Z</time></trkpt>
<trkpt lat="31.66148" lon="34.91984">
<ele>344</ele>
<time>2023-12-27T00:16:34Z</time></trkpt>
<trkpt lat="31.66151" lon="34.92011">
<ele>348</ele>
<time>2023-12-27T00:16:38Z</time></trkpt>
<trkpt lat="31.66154" lon="34.92067">
<ele>356</ele>
<time>2023-12-27T00:16:48Z</time></trkpt>
<trkpt lat="31.66142" lon="34.92094">
<ele>359</ele>
<time>2023-12-27T00:16:53Z</time></trkpt>
<trkpt lat="31.6613" lon="34.92112">
<ele>362</ele>
<time>2023-12-27T00:16:57Z</time></trkpt>
<trkpt lat="31.66107" lon="34.92117">
<ele>365</ele>
<time>2023-12-27T00:17:02Z</time></trkpt>
<trkpt lat="31.66082" lon="34.9212">
<ele>368</ele>
<time>2023-12-27T00:17:07Z</time></trkpt>
<trkpt lat="31.66015" lon="34.92126">
<ele>374</ele>
<time>2023-12-27T00:17:20Z</time></trkpt>
<trkpt lat="31.65973" lon="34.92108">
<ele>373</ele>
<time>2023-12-27T00:17:29Z</time></trkpt>
<trkpt lat="31.6593" lon="34.92094">
<ele>374</ele>
<time>2023-12-27T00:17:38Z</time></trkpt>
<trkpt lat="31.65913" lon="34.92098">
<ele>375</ele>
<time>2023-12-27T00:17:42Z</time></trkpt>
<trkpt lat="31.65903" lon="34.92108">
<ele>375</ele>
<time>2023-12-27T00:17:44Z</time></trkpt>
<trkpt lat="31.65893" lon="34.92122">
<ele>375</ele>
<time>2023-12-27T00:17:47Z</time></trkpt>
<trkpt lat="31.6587" lon="34.92175">
<ele>376</ele>
<time>2023-12-27T00:17:58Z</time></trkpt>
<trkpt lat="31.65804" lon="34.92244">
<ele>366</ele>
<time>2023-12-27T00:18:15Z</time></trkpt>
<trkpt lat="31.65785" lon="34.92266">
<ele>362</ele>
<time>2023-12-27T00:18:21Z</time></trkpt>
<trkpt lat="31.65779" lon="34.92271">
<ele>360</ele>
<time>2023-12-27T00:18:22Z</time></trkpt>
<trkpt lat="31.65772" lon="34.92273">
<ele>359</ele>
<time>2023-12-27T00:18:23Z</time></trkpt>
<trkpt lat="31.65749" lon="34.92263">
<ele>357</ele>
<time>2023-12-27T00:18:28Z</time></trkpt>
<trkpt lat="31.65732" lon="34.92264">
<ele>358</ele>
<time>2023-12-27T00:18:32Z</time></trkpt>
<trkpt lat="31.65708" lon="34.92262">
<ele>358</ele>
<time>2023-12-27T00:18:37Z</time></trkpt>
<trkpt lat="31.65679" lon="34.92252">
<ele>360</ele>
<time>2023-12-27T00:18:43Z</time></trkpt>
<trkpt lat="31.65671" lon="34.92247">
<ele>360</ele>
<time>2023-12-27T00:18:45Z</time></trkpt>
<trkpt lat="31.65671" lon="34.92246">
<ele>359</ele>
<time>2023-12-27T00:18:45Z</time></trkpt>
<trkpt lat="31.65643" lon="34.92229">
<ele>359</ele>
<time>2023-12-27T00:18:51Z</time></trkpt>
<trkpt lat="31.65624" lon="34.9222">
<ele>360</ele>
<time>2023-12-27T00:18:55Z</time></trkpt>
<trkpt lat="31.6549869" lon="34.9218115">
<ele>370</ele>
<time>2023-12-27T00:19:21Z</time></trkpt>
<trkpt lat="31.654427" lon="34.921556">
<ele>377</ele>
<time>2023-12-27T00:19:33Z</time></trkpt>
<trkpt lat="31.654376" lon="34.921558">
<ele>377</ele>
<time>2023-12-27T00:19:34Z</time></trkpt>
<trkpt lat="31.65431" lon="34.921598">
<ele>378</ele>
<time>2023-12-27T00:19:36Z</time></trkpt>
<trkpt lat="31.65413" lon="34.921779">
<ele>379</ele>
<time>2023-12-27T00:19:40Z</time></trkpt>
<trkpt lat="31.654046" lon="34.921812">
<ele>378</ele>
<time>2023-12-27T00:19:42Z</time></trkpt>
<trkpt lat="31.653789" lon="34.921843">
<ele>377</ele>
<time>2023-12-27T00:19:47Z</time></trkpt>
<trkpt lat="31.653712" lon="34.921822">
<ele>376</ele>
<time>2023-12-27T00:19:49Z</time></trkpt>
<trkpt lat="31.65334" lon="34.921539">
<ele>376</ele>
<time>2023-12-27T00:19:58Z</time></trkpt>
<trkpt lat="31.653246" lon="34.921446">
<ele>374</ele>
<time>2023-12-27T00:20:00Z</time></trkpt>
<trkpt lat="31.653224" lon="34.921399">
<ele>374</ele>
<time>2023-12-27T00:20:01Z</time></trkpt>
<trkpt lat="31.653166" lon="34.921275">
<ele>373</ele>
<time>2023-12-27T00:20:04Z</time></trkpt>
<trkpt lat="31.65312" lon="34.921032">
<ele>372</ele>
<time>2023-12-27T00:20:08Z</time></trkpt>
<trkpt lat="31.653109" lon="34.920769">
<ele>372</ele>
<time>2023-12-27T00:20:12Z</time></trkpt>
<trkpt lat="31.653117" lon="34.920666">
<ele>372</ele>
<time>2023-12-27T00:20:14Z</time></trkpt>
<trkpt lat="31.653264" lon="34.920009">
<ele>375</ele>
<time>2023-12-27T00:20:26Z</time></trkpt>
<trkpt lat="31.653268" lon="34.919866">
<ele>376</ele>
<time>2023-12-27T00:20:28Z</time></trkpt>
<trkpt lat="31.653248" lon="34.919765">
<ele>376</ele>
<time>2023-12-27T00:20:30Z</time></trkpt>
<trkpt lat="31.65319" lon="34.919615">
<ele>376</ele>
<time>2023-12-27T00:20:33Z</time></trkpt>
<trkpt lat="31.653093" lon="34.919453">
<ele>376</ele>
<time>2023-12-27T00:20:36Z</time></trkpt>
<trkpt lat="31.652922" lon="34.91927">
<ele>376</ele>
<time>2023-12-27T00:20:41Z</time></trkpt>
<trkpt lat="31.652785" lon="34.919175">
<ele>377</ele>
<time>2023-12-27T00:20:44Z</time></trkpt>
<trkpt lat="31.65257" lon="34.919086">
<ele>377</ele>
<time>2023-12-27T00:20:48Z</time></trkpt>
<trkpt lat="31.652238" lon="34.919076">
<ele>377</ele>
<time>2023-12-27T00:20:55Z</time></trkpt>
<trkpt lat="31.651997" lon="34.919137">
<ele>377</ele>
<time>2023-12-27T00:21:00Z</time></trkpt>
<trkpt lat="31.651433" lon="34.919428">
<ele>375</ele>
<time>2023-12-27T00:21:12Z</time></trkpt>
<trkpt lat="31.651304" lon="34.91946">
<ele>376</ele>
<time>2023-12-27T00:21:15Z</time></trkpt>
<trkpt lat="31.650931" lon="34.919507">
<ele>376</ele>
<time>2023-12-27T00:21:23Z</time></trkpt>
<trkpt lat="31.650577" lon="34.919454">
<ele>375</ele>
<time>2023-12-27T00:21:30Z</time></trkpt>
<trkpt lat="31.65043" lon="34.919384">
<ele>375</ele>
<time>2023-12-27T00:21:33Z</time></trkpt>
<trkpt lat="31.650257" lon="34.919249">
<ele>375</ele>
<time>2023-12-27T00:21:37Z</time></trkpt>
<trkpt lat="31.650159" lon="34.919109">
<ele>375</ele>
<time>2023-12-27T00:21:40Z</time></trkpt>
<trkpt lat="31.65007" lon="34.91886">
<ele>376</ele>
<time>2023-12-27T00:21:45Z</time></trkpt>
<trkpt lat="31.649985" lon="34.918521">
<ele>377</ele>
<time>2023-12-27T00:21:51Z</time></trkpt>
<trkpt lat="31.649904" lon="34.918313">
<ele>378</ele>
<time>2023-12-27T00:21:55Z</time></trkpt>
<trkpt lat="31.649835" lon="34.918206">
<ele>378</ele>
<time>2023-12-27T00:21:57Z</time></trkpt>
<trkpt lat="31.649677" lon="34.918052">
<ele>378</ele>
<time>2023-12-27T00:22:01Z</time></trkpt>
<trkpt lat="31.649576" lon="34.917987">
<ele>378</ele>
<time>2023-12-27T00:22:03Z</time></trkpt>
<trkpt lat="31.649465" lon="34.91796">
<ele>378</ele>
<time>2023-12-27T00:22:06Z</time></trkpt>
<trkpt lat="31.649267" lon="34.917962">
<ele>377</ele>
<time>2023-12-27T00:22:10Z</time></trkpt>
<trkpt lat="31.648758" lon="34.918117">
<ele>378</ele>
<time>2023-12-27T00:22:20Z</time></trkpt>
<trkpt lat="31.648642" lon="34.918169">
<ele>378</ele>
<time>2023-12-27T00:22:23Z</time></trkpt>
<trkpt lat="31.648095" lon="34.918491">
<ele>378</ele>
<time>2023-12-27T00:22:35Z</time></trkpt>
<trkpt lat="31.648009" lon="34.918515">
<ele>377</ele>
<time>2023-12-27T00:22:37Z</time></trkpt>
<trkpt lat="31.647856" lon="34.918523">
<ele>378</ele>
<time>2023-12-27T00:22:40Z</time></trkpt>
<trkpt lat="31.647751" lon="34.918505">
<ele>378</ele>
<time>2023-12-27T00:22:42Z</time></trkpt>
<trkpt lat="31.647683" lon="34.918459">
<ele>378</ele>
<time>2023-12-27T00:22:43Z</time></trkpt>
<trkpt lat="31.647636" lon="34.918398">
<ele>378</ele>
<time>2023-12-27T00:22:45Z</time></trkpt>
<trkpt lat="31.64759" lon="34.918231">
<ele>379</ele>
<time>2023-12-27T00:22:48Z</time></trkpt>
<trkpt lat="31.647583" lon="34.918061">
<ele>379</ele>
<time>2023-12-27T00:22:51Z</time></trkpt>
<trkpt lat="31.647525" lon="34.917829">
<ele>380</ele>
<time>2023-12-27T00:22:55Z</time></trkpt>
<trkpt lat="31.647441" lon="34.917752">
<ele>380</ele>
<time>2023-12-27T00:22:57Z</time></trkpt>
<trkpt lat="31.647244" lon="34.917642">
<ele>379</ele>
<time>2023-12-27T00:23:01Z</time></trkpt>
<trkpt lat="31.646796" lon="34.917425">
<ele>377</ele>
<time>2023-12-27T00:23:11Z</time></trkpt>
<trkpt lat="31.646652" lon="34.917377">
<ele>377</ele>
<time>2023-12-27T00:23:14Z</time></trkpt>
<trkpt lat="31.646466" lon="34.917336">
<ele>378</ele>
<time>2023-12-27T00:23:18Z</time></trkpt>
<trkpt lat="31.646401" lon="34.917387">
<ele>378</ele>
<time>2023-12-27T00:23:19Z</time></trkpt>
<trkpt lat="31.64645" lon="34.9175">
<ele>377</ele>
<time>2023-12-27T00:23:22Z</time></trkpt>
<trkpt lat="31.646639" lon="34.917594">
<ele>375</ele>
<time>2023-12-27T00:23:26Z</time></trkpt>
<trkpt lat="31.646738" lon="34.917711">
<ele>374</ele>
<time>2023-12-27T00:23:29Z</time></trkpt>
<trkpt lat="31.646784" lon="34.917812">
<ele>374</ele>
<time>2023-12-27T00:23:30Z</time></trkpt>
<trkpt lat="31.646805" lon="34.917924">
<ele>373</ele>
<time>2023-12-27T00:23:32Z</time></trkpt>
<trkpt lat="31.646801" lon="34.91803">
<ele>372</ele>
<time>2023-12-27T00:23:34Z</time></trkpt>
<trkpt lat="31.646774" lon="34.918171">
<ele>370</ele>
<time>2023-12-27T00:23:37Z</time></trkpt>
<trkpt lat="31.646667" lon="34.918599">
<ele>366</ele>
<time>2023-12-27T00:23:44Z</time></trkpt>
<trkpt lat="31.646554" lon="34.919185">
<ele>363</ele>
<time>2023-12-27T00:23:55Z</time></trkpt>
<trkpt lat="31.646503" lon="34.919333">
<ele>363</ele>
<time>2023-12-27T00:23:57Z</time></trkpt>
<trkpt lat="31.646223" lon="34.919916">
<ele>360</ele>
<time>2023-12-27T00:24:09Z</time></trkpt>
<trkpt lat="31.646045" lon="34.920351">
<ele>356</ele>
<time>2023-12-27T00:24:17Z</time></trkpt>
<trkpt lat="31.645886" lon="34.920692">
<ele>352</ele>
<time>2023-12-27T00:24:24Z</time></trkpt>
<trkpt lat="31.645472" lon="34.92147">
<ele>348</ele>
<time>2023-12-27T00:24:39Z</time></trkpt>
<trkpt lat="31.645402" lon="34.921659">
<ele>347</ele>
<time>2023-12-27T00:24:43Z</time></trkpt>
<trkpt lat="31.645239" lon="34.9222">
<ele>342</ele>
<time>2023-12-27T00:24:53Z</time></trkpt>
<trkpt lat="31.64509" lon="34.922536">
<ele>338</ele>
<time>2023-12-27T00:24:59Z</time></trkpt>
<trkpt lat="31.645032" lon="34.922729">
<ele>336</ele>
<time>2023-12-27T00:25:02Z</time></trkpt>
<trkpt lat="31.644928" lon="34.923278">
<ele>331</ele>
<time>2023-12-27T00:25:12Z</time></trkpt>
<trkpt lat="31.644928" lon="34.923425">
<ele>330</ele>
<time>2023-12-27T00:25:15Z</time></trkpt>
<trkpt lat="31.645052" lon="34.924066">
<ele>325</ele>
<time>2023-12-27T00:25:26Z</time></trkpt>
<trkpt lat="31.645104" lon="34.924142">
<ele>325</ele>
<time>2023-12-27T00:25:27Z</time></trkpt>
<trkpt lat="31.645189" lon="34.924218">
<ele>325</ele>
<time>2023-12-27T00:25:30Z</time></trkpt>
<trkpt lat="31.645426" lon="34.924365">
<ele>326</ele>
<time>2023-12-27T00:25:35Z</time></trkpt>
<trkpt lat="31.645615" lon="34.924511">
<ele>325</ele>
<time>2023-12-27T00:25:40Z</time></trkpt>
<trkpt lat="31.645947" lon="34.924841">
<ele>322</ele>
<time>2023-12-27T00:25:48Z</time></trkpt>
<trkpt lat="31.646123" lon="34.924954">
<ele>322</ele>
<time>2023-12-27T00:25:52Z</time></trkpt>
<trkpt lat="31.646186" lon="34.925046">
<ele>321</ele>
<time>2023-12-27T00:25:54Z</time></trkpt>
<trkpt lat="31.646174" lon="34.925149">
<ele>321</ele>
<time>2023-12-27T00:25:56Z</time></trkpt>
<trkpt lat="31.646523" lon="34.925381">
<ele>320</ele>
<time>2023-12-27T00:26:04Z</time></trkpt>
<trkpt lat="31.646411" lon="34.925586">
<ele>320</ele>
<time>2023-12-27T00:26:08Z</time></trkpt>
<trkpt lat="31.646343" lon="34.925817">
<ele>320</ele>
<time>2023-12-27T00:26:12Z</time></trkpt>
<trkpt lat="31.646391" lon="34.926001">
<ele>320</ele>
<time>2023-12-27T00:26:16Z</time></trkpt>
<trkpt lat="31.646542" lon="34.926228">
<ele>317</ele>
<time>2023-12-27T00:26:21Z</time></trkpt>
<trkpt lat="31.646668" lon="34.926502">
<ele>315</ele>
<time>2023-12-27T00:26:26Z</time></trkpt>
<trkpt lat="31.646696" lon="34.926706">
<ele>315</ele>
<time>2023-12-27T00:26:29Z</time></trkpt>
<trkpt lat="31.646679" lon="34.926892">
<ele>316</ele>
<time>2023-12-27T00:26:33Z</time></trkpt>
<trkpt lat="31.646509" lon="34.927284">
<ele>318</ele>
<time>2023-12-27T00:26:40Z</time></trkpt>
<trkpt lat="31.645982" lon="34.928375">
<ele>320</ele>
<time>2023-12-27T00:27:02Z</time></trkpt>
<trkpt lat="31.645712" lon="34.928781">
<ele>322</ele>
<time>2023-12-27T00:27:10Z</time></trkpt>
<trkpt lat="31.645249" lon="34.929208">
<ele>324</ele>
<time>2023-12-27T00:27:22Z</time></trkpt>
<trkpt lat="31.644502" lon="34.92977">
<ele>328</ele>
<time>2023-12-27T00:27:40Z</time></trkpt>
<trkpt lat="31.642548" lon="34.931171">
<ele>334</ele>
<time>2023-12-27T00:28:26Z</time></trkpt>
<trkpt lat="31.642322" lon="34.931321">
<ele>335</ele>
<time>2023-12-27T00:28:31Z</time></trkpt>
<trkpt lat="31.641783" lon="34.931599">
<ele>334</ele>
<time>2023-12-27T00:28:43Z</time></trkpt>
<trkpt lat="31.640663" lon="34.932136">
<ele>339</ele>
<time>2023-12-27T00:29:07Z</time></trkpt>
<trkpt lat="31.639924" lon="34.932416">
<ele>339</ele>
<time>2023-12-27T00:29:23Z</time></trkpt>
<trkpt lat="31.639475" lon="34.932607">
<ele>340</ele>
<time>2023-12-27T00:29:32Z</time></trkpt>
<trkpt lat="31.639159" lon="34.932786">
<ele>341</ele>
<time>2023-12-27T00:29:39Z</time></trkpt>
<trkpt lat="31.638755" lon="34.933079">
<ele>344</ele>
<time>2023-12-27T00:29:49Z</time></trkpt>
<trkpt lat="31.638339" lon="34.93343">
<ele>344</ele>
<time>2023-12-27T00:29:59Z</time></trkpt>
<trkpt lat="31.637944" lon="34.93384">
<ele>348</ele>
<time>2023-12-27T00:30:09Z</time></trkpt>
<trkpt lat="31.63773" lon="34.934117">
<ele>348</ele>
<time>2023-12-27T00:30:16Z</time></trkpt>
<trkpt lat="31.637381" lon="34.934821">
<ele>349</ele>
<time>2023-12-27T00:30:30Z</time></trkpt>
<trkpt lat="31.636989" lon="34.935612">
<ele>350</ele>
<time>2023-12-27T00:30:45Z</time></trkpt>
<trkpt lat="31.636899" lon="34.935578">
<ele>349</ele>
<time>2023-12-27T00:30:47Z</time></trkpt>
<trkpt lat="31.636807" lon="34.93562">
<ele>349</ele>
<time>2023-12-27T00:30:49Z</time></trkpt>
<trkpt lat="31.636728" lon="34.935673">
<ele>348</ele>
<time>2023-12-27T00:30:51Z</time></trkpt>
<trkpt lat="31.636625" lon="34.935795">
<ele>347</ele>
<time>2023-12-27T00:30:54Z</time></trkpt>
<trkpt lat="31.636541" lon="34.935823">
<ele>347</ele>
<time>2023-12-27T00:30:56Z</time></trkpt>
<trkpt lat="31.636262" lon="34.935967">
<ele>350</ele>
<time>2023-12-27T00:31:02Z</time></trkpt>
<trkpt lat="31.636117" lon="34.936085">
<ele>351</ele>
<time>2023-12-27T00:31:05Z</time></trkpt>
<trkpt lat="31.63598" lon="34.936148">
<ele>352</ele>
<time>2023-12-27T00:31:08Z</time></trkpt>
<trkpt lat="31.635468" lon="34.936213">
<ele>354</ele>
<time>2023-12-27T00:31:19Z</time></trkpt>
<trkpt lat="31.635372" lon="34.936411">
<ele>354</ele>
<time>2023-12-27T00:31:23Z</time></trkpt>
<trkpt lat="31.635358" lon="34.936504">
<ele>354</ele>
<time>2023-12-27T00:31:24Z</time></trkpt>
<trkpt lat="31.635314" lon="34.936576">
<ele>354</ele>
<time>2023-12-27T00:31:26Z</time></trkpt>
<trkpt lat="31.635305" lon="34.936747">
<ele>355</ele>
<time>2023-12-27T00:31:29Z</time></trkpt>
<trkpt lat="31.635139" lon="34.937029">
<ele>357</ele>
<time>2023-12-27T00:31:34Z</time></trkpt>
<trkpt lat="31.634481" lon="34.937955">
<ele>365</ele>
<time>2023-12-27T00:31:55Z</time></trkpt>
<trkpt lat="31.634226" lon="34.938715">
<ele>366</ele>
<time>2023-12-27T00:32:09Z</time></trkpt>
<trkpt lat="31.634031" lon="34.939011">
<ele>368</ele>
<time>2023-12-27T00:32:15Z</time></trkpt>
<trkpt lat="31.633826" lon="34.939456">
<ele>372</ele>
<time>2023-12-27T00:32:24Z</time></trkpt>
<trkpt lat="31.633662" lon="34.939975">
<ele>373</ele>
<time>2023-12-27T00:32:33Z</time></trkpt>
<trkpt lat="31.633523" lon="34.940166">
<ele>373</ele>
<time>2023-12-27T00:32:38Z</time></trkpt>
<trkpt lat="31.63343" lon="34.940236">
<ele>373</ele>
<time>2023-12-27T00:32:40Z</time></trkpt>
<trkpt lat="31.633067" lon="34.940437">
<ele>376</ele>
<time>2023-12-27T00:32:48Z</time></trkpt>
<trkpt lat="31.632928" lon="34.940575">
<ele>376</ele>
<time>2023-12-27T00:32:52Z</time></trkpt>
<trkpt lat="31.63276" lon="34.940809">
<ele>375</ele>
<time>2023-12-27T00:32:57Z</time></trkpt>
<trkpt lat="31.632575" lon="34.941009">
<ele>376</ele>
<time>2023-12-27T00:33:02Z</time></trkpt>
<trkpt lat="31.632411" lon="34.941107">
<ele>377</ele>
<time>2023-12-27T00:33:06Z</time></trkpt>
<trkpt lat="31.632278" lon="34.941213">
<ele>378</ele>
<time>2023-12-27T00:33:09Z</time></trkpt>
<trkpt lat="31.632008" lon="34.941627">
<ele>381</ele>
<time>2023-12-27T00:33:18Z</time></trkpt>
<trkpt lat="31.631976" lon="34.941728">
<ele>381</ele>
<time>2023-12-27T00:33:20Z</time></trkpt>
<trkpt lat="31.631891" lon="34.941896">
<ele>382</ele>
<time>2023-12-27T00:33:23Z</time></trkpt>
<trkpt lat="31.631573" lon="34.942282">
<ele>384</ele>
<time>2023-12-27T00:33:32Z</time></trkpt>
<trkpt lat="31.631529" lon="34.942357">
<ele>384</ele>
<time>2023-12-27T00:33:34Z</time></trkpt>
<trkpt lat="31.631453" lon="34.94259">
<ele>386</ele>
<time>2023-12-27T00:33:38Z</time></trkpt>
<trkpt lat="31.631355" lon="34.94281">
<ele>388</ele>
<time>2023-12-27T00:33:42Z</time></trkpt>
<trkpt lat="31.63095" lon="34.943321">
<ele>389</ele>
<time>2023-12-27T00:33:54Z</time></trkpt>
<trkpt lat="31.630839" lon="34.943485">
<ele>390</ele>
<time>2023-12-27T00:33:58Z</time></trkpt>
<trkpt lat="31.63053" lon="34.944047">
<ele>390</ele>
<time>2023-12-27T00:34:09Z</time></trkpt>
<trkpt lat="31.630488" lon="34.94416">
<ele>389</ele>
<time>2023-12-27T00:34:11Z</time></trkpt>
<trkpt lat="31.630362" lon="34.944325">
<ele>389</ele>
<time>2023-12-27T00:34:15Z</time></trkpt>
<trkpt lat="31.629841" lon="34.944336">
<ele>382</ele>
<time>2023-12-27T00:34:25Z</time></trkpt>
<trkpt lat="31.629626" lon="34.944303">
<ele>380</ele>
<time>2023-12-27T00:34:30Z</time></trkpt>
<trkpt lat="31.629526" lon="34.94433">
<ele>379</ele>
<time>2023-12-27T00:34:32Z</time></trkpt>
<trkpt lat="31.629423" lon="34.944398">
<ele>378</ele>
<time>2023-12-27T00:34:34Z</time></trkpt>
<trkpt lat="31.629333" lon="34.944435">
<ele>377</ele>
<time>2023-12-27T00:34:36Z</time></trkpt>
<trkpt lat="31.629306" lon="34.944433">
<ele>377</ele>
<time>2023-12-27T00:34:36Z</time></trkpt>
<trkpt lat="31.629242" lon="34.944427">
<ele>376</ele>
<time>2023-12-27T00:34:38Z</time></trkpt>
<trkpt lat="31.628895" lon="34.944152">
<ele>373</ele>
<time>2023-12-27T00:34:46Z</time></trkpt>
<trkpt lat="31.628636" lon="34.943897">
<ele>373</ele>
<time>2023-12-27T00:34:53Z</time></trkpt>
<trkpt lat="31.628307" lon="34.943496">
<ele>370</ele>
<time>2023-12-27T00:35:02Z</time></trkpt>
<trkpt lat="31.628193" lon="34.943379">
<ele>370</ele>
<time>2023-12-27T00:35:05Z</time></trkpt>
<trkpt lat="31.627747" lon="34.943013">
<ele>369</ele>
<time>2023-12-27T00:35:16Z</time></trkpt>
<trkpt lat="31.627599" lon="34.942868">
<ele>368</ele>
<time>2023-12-27T00:35:20Z</time></trkpt>
<trkpt lat="31.627392" lon="34.942698">
<ele>366</ele>
<time>2023-12-27T00:35:25Z</time></trkpt>
<trkpt lat="31.627099" lon="34.942509">
<ele>363</ele>
<time>2023-12-27T00:35:32Z</time></trkpt>
<trkpt lat="31.626894" lon="34.94234">
<ele>361</ele>
<time>2023-12-27T00:35:37Z</time></trkpt>
<trkpt lat="31.626786" lon="34.942246">
<ele>360</ele>
<time>2023-12-27T00:35:40Z</time></trkpt>
<trkpt lat="31.626526" lon="34.941953">
<ele>356</ele>
<time>2023-12-27T00:35:47Z</time></trkpt>
<trkpt lat="31.626439" lon="34.941874">
<ele>355</ele>
<time>2023-12-27T00:35:49Z</time></trkpt>
<trkpt lat="31.626342" lon="34.94182">
<ele>354</ele>
<time>2023-12-27T00:35:51Z</time></trkpt>
<trkpt lat="31.625835" lon="34.941106">
<ele>346</ele>
<time>2023-12-27T00:36:07Z</time></trkpt>
<trkpt lat="31.625691" lon="34.94085">
<ele>348</ele>
<time>2023-12-27T00:36:12Z</time></trkpt>
<trkpt lat="31.625627" lon="34.940689">
<ele>348</ele>
<time>2023-12-27T00:36:15Z</time></trkpt>
<trkpt lat="31.625393" lon="34.939966">
<ele>346</ele>
<time>2023-12-27T00:36:29Z</time></trkpt>
<trkpt lat="31.625368" lon="34.939728">
<ele>345</ele>
<time>2023-12-27T00:36:33Z</time></trkpt>
<trkpt lat="31.625341" lon="34.939612">
<ele>345</ele>
<time>2023-12-27T00:36:35Z</time></trkpt>
<trkpt lat="31.625281" lon="34.93948">
<ele>344</ele>
<time>2023-12-27T00:36:37Z</time></trkpt>
<trkpt lat="31.625149" lon="34.939272">
<ele>340</ele>
<time>2023-12-27T00:36:42Z</time></trkpt>
<trkpt lat="31.625007" lon="34.938851">
<ele>337</ele>
<time>2023-12-27T00:36:49Z</time></trkpt>
<trkpt lat="31.62477" lon="34.938296">
<ele>338</ele>
<time>2023-12-27T00:37:00Z</time></trkpt>
<trkpt lat="31.624622" lon="34.937856">
<ele>338</ele>
<time>2023-12-27T00:37:08Z</time></trkpt>
<trkpt lat="31.624433" lon="34.937488">
<ele>335</ele>
<time>2023-12-27T00:37:15Z</time></trkpt>
<trkpt lat="31.624348" lon="34.937252">
<ele>334</ele>
<time>2023-12-27T00:37:20Z</time></trkpt>
<trkpt lat="31.623953" lon="34.935579">
<ele>328</ele>
<time>2023-12-27T00:37:49Z</time></trkpt>
<trkpt lat="31.623882" lon="34.935042">
<ele>327</ele>
<time>2023-12-27T00:37:59Z</time></trkpt>
<trkpt lat="31.623894" lon="34.934703">
<ele>325</ele>
<time>2023-12-27T00:38:05Z</time></trkpt>
<trkpt lat="31.623888" lon="34.934538">
<ele>324</ele>
<time>2023-12-27T00:38:07Z</time></trkpt>
<trkpt lat="31.623861" lon="34.934387">
<ele>324</ele>
<time>2023-12-27T00:38:10Z</time></trkpt>
<trkpt lat="31.623744" lon="34.93413">
<ele>322</ele>
<time>2023-12-27T00:38:15Z</time></trkpt>
<trkpt lat="31.62364" lon="34.933856">
<ele>321</ele>
<time>2023-12-27T00:38:20Z</time></trkpt>
<trkpt lat="31.623543" lon="34.933532">
<ele>319</ele>
<time>2023-12-27T00:38:26Z</time></trkpt>
<trkpt lat="31.623533" lon="34.933376">
<ele>318</ele>
<time>2023-12-27T00:38:29Z</time></trkpt>
<trkpt lat="31.623547" lon="34.933078">
<ele>317</ele>
<time>2023-12-27T00:38:34Z</time></trkpt>
<trkpt lat="31.623527" lon="34.93293">
<ele>317</ele>
<time>2023-12-27T00:38:36Z</time></trkpt>
<trkpt lat="31.623375" lon="34.932548">
<ele>313</ele>
<time>2023-12-27T00:38:43Z</time></trkpt>
<trkpt lat="31.6233579" lon="34.9323294">
<ele>312</ele>
<time>2023-12-27T00:38:47Z</time></trkpt>
<trkpt lat="31.6233114" lon="34.9319959">
<ele>312</ele>
<time>2023-12-27T00:38:53Z</time></trkpt>
<trkpt lat="31.623291" lon="34.931699">
<ele>312</ele>
<time>2023-12-27T00:38:58Z</time></trkpt>
<trkpt lat="31.623304" lon="34.931546">
<ele>312</ele>
<time>2023-12-27T00:39:01Z</time></trkpt>
<trkpt lat="31.623261" lon="34.930757">
<ele>309</ele>
<time>2023-12-27T00:39:14Z</time></trkpt>
<trkpt lat="31.623274" lon="34.930518">
<ele>308</ele>
<time>2023-12-27T00:39:18Z</time></trkpt>
<trkpt lat="31.62326" lon="34.930342">
<ele>308</ele>
<time>2023-12-27T00:39:21Z</time></trkpt>
<trkpt lat="31.623208" lon="34.930046">
<ele>307</ele>
<time>2023-12-27T00:39:26Z</time></trkpt>
<trkpt lat="31.623141" lon="34.929788">
<ele>307</ele>
<time>2023-12-27T00:39:31Z</time></trkpt>
<trkpt lat="31.622999" lon="34.929477">
<ele>307</ele>
<time>2023-12-27T00:39:37Z</time></trkpt>
<trkpt lat="31.622862" lon="34.929274">
<ele>307</ele>
<time>2023-12-27T00:39:41Z</time></trkpt>
<trkpt lat="31.622699" lon="34.929072">
<ele>306</ele>
<time>2023-12-27T00:39:46Z</time></trkpt>
<trkpt lat="31.622095" lon="34.92838">
<ele>304</ele>
<time>2023-12-27T00:40:03Z</time></trkpt>
<trkpt lat="31.62145" lon="34.927779">
<ele>302</ele>
<time>2023-12-27T00:40:20Z</time></trkpt>
<trkpt lat="31.620728" lon="34.9274">
<ele>302</ele>
<time>2023-12-27T00:40:35Z</time></trkpt>
<trkpt lat="31.6201" lon="34.927141">
<ele>305</ele>
<time>2023-12-27T00:40:49Z</time></trkpt>
<trkpt lat="31.61996" lon="34.927031">
<ele>304</ele>
<time>2023-12-27T00:40:52Z</time></trkpt>
<trkpt lat="31.619648" lon="34.927012">
<ele>305</ele>
<time>2023-12-27T00:40:58Z</time></trkpt>
<trkpt lat="31.619167" lon="34.92678">
<ele>302</ele>
<time>2023-12-27T00:41:09Z</time></trkpt>
<trkpt lat="31.618837" lon="34.9267">
<ele>299</ele>
<time>2023-12-27T00:41:16Z</time></trkpt>
<trkpt lat="31.618547" lon="34.926768">
<ele>299</ele>
<time>2023-12-27T00:41:22Z</time></trkpt>
<trkpt lat="31.618426" lon="34.926833">
<ele>300</ele>
<time>2023-12-27T00:41:24Z</time></trkpt>
<trkpt lat="31.618289" lon="34.926948">
<ele>301</ele>
<time>2023-12-27T00:41:28Z</time></trkpt>
<trkpt lat="31.618244" lon="34.926986">
<ele>301</ele>
<time>2023-12-27T00:41:29Z</time></trkpt>
<trkpt lat="31.617829" lon="34.927333">
<ele>302</ele>
<time>2023-12-27T00:41:39Z</time></trkpt>
<trkpt lat="31.61766" lon="34.927422">
<ele>301</ele>
<time>2023-12-27T00:41:43Z</time></trkpt>
<trkpt lat="31.617542" lon="34.927461">
<ele>300</ele>
<time>2023-12-27T00:41:45Z</time></trkpt>
<trkpt lat="31.617186" lon="34.927475">
<ele>297</ele>
<time>2023-12-27T00:41:52Z</time></trkpt>
<trkpt lat="31.617121" lon="34.92749">
<ele>296</ele>
<time>2023-12-27T00:41:53Z</time></trkpt>
<trkpt lat="31.617027" lon="34.927549">
<ele>296</ele>
<time>2023-12-27T00:41:56Z</time></trkpt>
<trkpt lat="31.617001" lon="34.927626">
<ele>296</ele>
<time>2023-12-27T00:41:57Z</time></trkpt>
<trkpt lat="31.616966" lon="34.927875">
<ele>298</ele>
<time>2023-12-27T00:42:01Z</time></trkpt>
<trkpt lat="31.616919" lon="34.928035">
<ele>299</ele>
<time>2023-12-27T00:42:04Z</time></trkpt>
<trkpt lat="31.616754" lon="34.928504">
<ele>301</ele>
<time>2023-12-27T00:42:13Z</time></trkpt>
<trkpt lat="31.61668" lon="34.928649">
<ele>301</ele>
<time>2023-12-27T00:42:16Z</time></trkpt>
<trkpt lat="31.616546" lon="34.928994">
<ele>301</ele>
<time>2023-12-27T00:42:22Z</time></trkpt>
<trkpt lat="31.616453" lon="34.929174">
<ele>302</ele>
<time>2023-12-27T00:42:26Z</time></trkpt>
<trkpt lat="31.6164186" lon="34.92931">
<ele>302</ele>
<time>2023-12-27T00:42:28Z</time></trkpt>
<trkpt lat="31.6164228" lon="34.9296999">
<ele>306</ele>
<time>2023-12-27T00:42:35Z</time></trkpt>
<trkpt lat="31.6164065" lon="34.9300218">
<ele>308</ele>
<time>2023-12-27T00:42:40Z</time></trkpt>
<trkpt lat="31.61641" lon="34.930054">
<ele>309</ele>
<time>2023-12-27T00:42:41Z</time></trkpt>
<trkpt lat="31.616332" lon="34.930335">
<ele>309</ele>
<time>2023-12-27T00:42:46Z</time></trkpt>
<trkpt lat="31.616209" lon="34.930542">
<ele>308</ele>
<time>2023-12-27T00:42:50Z</time></trkpt>
<trkpt lat="31.616008" lon="34.931351">
<ele>308</ele>
<time>2023-12-27T00:43:05Z</time></trkpt>
<trkpt lat="31.61581" lon="34.931985">
<ele>307</ele>
<time>2023-12-27T00:43:16Z</time></trkpt>
<trkpt lat="31.61573" lon="34.932825">
<ele>308</ele>
<time>2023-12-27T00:43:31Z</time></trkpt>
<trkpt lat="31.615725" lon="34.933248">
<ele>309</ele>
<time>2023-12-27T00:43:38Z</time></trkpt>
<trkpt lat="31.615675" lon="34.933667">
<ele>311</ele>
<time>2023-12-27T00:43:45Z</time></trkpt>
<trkpt lat="31.615584" lon="34.933943">
<ele>311</ele>
<time>2023-12-27T00:43:50Z</time></trkpt>
<trkpt lat="31.615543" lon="34.934276">
<ele>312</ele>
<time>2023-12-27T00:43:56Z</time></trkpt>
<trkpt lat="31.615474" lon="34.93456">
<ele>311</ele>
<time>2023-12-27T00:44:01Z</time></trkpt>
<trkpt lat="31.615438" lon="34.934896">
<ele>312</ele>
<time>2023-12-27T00:44:07Z</time></trkpt>
<trkpt lat="31.61494" lon="34.93724">
<ele>317</ele>
<time>2023-12-27T00:44:48Z</time></trkpt>
<trkpt lat="31.614909" lon="34.937448">
<ele>318</ele>
<time>2023-12-27T00:44:52Z</time></trkpt>
<trkpt lat="31.614848" lon="34.9376">
<ele>318</ele>
<time>2023-12-27T00:44:54Z</time></trkpt>
<trkpt lat="31.614768" lon="34.937925">
<ele>318</ele>
<time>2023-12-27T00:45:00Z</time></trkpt>
<trkpt lat="31.614725" lon="34.938173">
<ele>318</ele>
<time>2023-12-27T00:45:04Z</time></trkpt>
<trkpt lat="31.614702" lon="34.938425">
<ele>318</ele>
<time>2023-12-27T00:45:09Z</time></trkpt>
<trkpt lat="31.614681" lon="34.939016">
<ele>319</ele>
<time>2023-12-27T00:45:19Z</time></trkpt>
<trkpt lat="31.614703" lon="34.939268">
<ele>320</ele>
<time>2023-12-27T00:45:23Z</time></trkpt>
<trkpt lat="31.614746" lon="34.93943">
<ele>320</ele>
<time>2023-12-27T00:45:26Z</time></trkpt>
<trkpt lat="31.614897" lon="34.939859">
<ele>323</ele>
<time>2023-12-27T00:45:34Z</time></trkpt>
<trkpt lat="31.614975" lon="34.940271">
<ele>322</ele>
<time>2023-12-27T00:45:41Z</time></trkpt>
<trkpt lat="31.615044" lon="34.940511">
<ele>322</ele>
<time>2023-12-27T00:45:46Z</time></trkpt>
<trkpt lat="31.615174" lon="34.940856">
<ele>322</ele>
<time>2023-12-27T00:45:52Z</time></trkpt>
<trkpt lat="31.615178" lon="34.940961">
<ele>322</ele>
<time>2023-12-27T00:45:54Z</time></trkpt>
<trkpt lat="31.615245" lon="34.941129">
<ele>323</ele>
<time>2023-12-27T00:45:57Z</time></trkpt>
<trkpt lat="31.615246" lon="34.941253">
<ele>323</ele>
<time>2023-12-27T00:45:59Z</time></trkpt>
<trkpt lat="31.6153" lon="34.941453">
<ele>325</ele>
<time>2023-12-27T00:46:03Z</time></trkpt>
<trkpt lat="31.615293" lon="34.94158">
<ele>325</ele>
<time>2023-12-27T00:46:05Z</time></trkpt>
<trkpt lat="31.615312" lon="34.941745">
<ele>325</ele>
<time>2023-12-27T00:46:08Z</time></trkpt>
<trkpt lat="31.615382" lon="34.941939">
<ele>327</ele>
<time>2023-12-27T00:46:11Z</time></trkpt>
<trkpt lat="31.615419" lon="34.942101">
<ele>328</ele>
<time>2023-12-27T00:46:14Z</time></trkpt>
<trkpt lat="31.615526" lon="34.942322">
<ele>330</ele>
<time>2023-12-27T00:46:18Z</time></trkpt>
<trkpt lat="31.615598" lon="34.942561">
<ele>332</ele>
<time>2023-12-27T00:46:23Z</time></trkpt>
<trkpt lat="31.615753" lon="34.942895">
<ele>333</ele>
<time>2023-12-27T00:46:29Z</time></trkpt>
<trkpt lat="31.61578" lon="34.943017">
<ele>333</ele>
<time>2023-12-27T00:46:31Z</time></trkpt>
<trkpt lat="31.615888" lon="34.943235">
<ele>334</ele>
<time>2023-12-27T00:46:36Z</time></trkpt>
<trkpt lat="31.615939" lon="34.943393">
<ele>333</ele>
<time>2023-12-27T00:46:39Z</time></trkpt>
<trkpt lat="31.616011" lon="34.943486">
<ele>334</ele>
<time>2023-12-27T00:46:41Z</time></trkpt>
<trkpt lat="31.616067" lon="34.943595">
<ele>334</ele>
<time>2023-12-27T00:46:43Z</time></trkpt>
<trkpt lat="31.616089" lon="34.943675">
<ele>333</ele>
<time>2023-12-27T00:46:44Z</time></trkpt>
<trkpt lat="31.616102" lon="34.944139">
<ele>330</ele>
<time>2023-12-27T00:46:52Z</time></trkpt>
<trkpt lat="31.616085" lon="34.944264">
<ele>330</ele>
<time>2023-12-27T00:46:54Z</time></trkpt>
<trkpt lat="31.6160055" lon="34.9444757">
<ele>329</ele>
<time>2023-12-27T00:46:58Z</time></trkpt>
<trkpt lat="31.615895" lon="34.94477">
<ele>329</ele>
<time>2023-12-27T00:47:04Z</time></trkpt>
<trkpt lat="31.615833" lon="34.944961">
<ele>328</ele>
<time>2023-12-27T00:47:07Z</time></trkpt>
<trkpt lat="31.615695" lon="34.945575">
<ele>328</ele>
<time>2023-12-27T00:47:18Z</time></trkpt>
<trkpt lat="31.615616" lon="34.946115">
<ele>329</ele>
<time>2023-12-27T00:47:28Z</time></trkpt>
<trkpt lat="31.615597" lon="34.946196">
<ele>328</ele>
<time>2023-12-27T00:47:29Z</time></trkpt>
<trkpt lat="31.615533" lon="34.946347">
<ele>328</ele>
<time>2023-12-27T00:47:32Z</time></trkpt>
<trkpt lat="31.615504" lon="34.946469">
<ele>328</ele>
<time>2023-12-27T00:47:34Z</time></trkpt>
<trkpt lat="31.615473" lon="34.946762">
<ele>327</ele>
<time>2023-12-27T00:47:39Z</time></trkpt>
<trkpt lat="31.615493" lon="34.947015">
<ele>327</ele>
<time>2023-12-27T00:47:43Z</time></trkpt>
<trkpt lat="31.615477" lon="34.947225">
<ele>326</ele>
<time>2023-12-27T00:47:47Z</time></trkpt>
<trkpt lat="31.615328" lon="34.947746">
<ele>326</ele>
<time>2023-12-27T00:47:56Z</time></trkpt>
<trkpt lat="31.615196" lon="34.948015">
<ele>326</ele>
<time>2023-12-27T00:48:02Z</time></trkpt>
<trkpt lat="31.614525" lon="34.948744">
<ele>329</ele>
<time>2023-12-27T00:48:20Z</time></trkpt>
<trkpt lat="31.614422" lon="34.948783">
<ele>328</ele>
<time>2023-12-27T00:48:22Z</time></trkpt>
<trkpt lat="31.614209" lon="34.949009">
<ele>328</ele>
<time>2023-12-27T00:48:28Z</time></trkpt>
<trkpt lat="31.613963" lon="34.949182">
<ele>327</ele>
<time>2023-12-27T00:48:34Z</time></trkpt>
<trkpt lat="31.61388" lon="34.949262">
<ele>327</ele>
<time>2023-12-27T00:48:36Z</time></trkpt>
<trkpt lat="31.613797" lon="34.949398">
<ele>328</ele>
<time>2023-12-27T00:48:39Z</time></trkpt>
<trkpt lat="31.613764" lon="34.949473">
<ele>329</ele>
<time>2023-12-27T00:48:40Z</time></trkpt>
<trkpt lat="31.613748" lon="34.949599">
<ele>330</ele>
<time>2023-12-27T00:48:42Z</time></trkpt>
<trkpt lat="31.613656" lon="34.94978">
<ele>330</ele>
<time>2023-12-27T00:48:46Z</time></trkpt>
<trkpt lat="31.613625" lon="34.949901">
<ele>331</ele>
<time>2023-12-27T00:48:48Z</time></trkpt>
<trkpt lat="31.613417" lon="34.950296">
<ele>331</ele>
<time>2023-12-27T00:48:56Z</time></trkpt>
<trkpt lat="31.613337" lon="34.950531">
<ele>331</ele>
<time>2023-12-27T00:49:00Z</time></trkpt>
<trkpt lat="31.61324" lon="34.950938">
<ele>333</ele>
<time>2023-12-27T00:49:07Z</time></trkpt>
<trkpt lat="31.613066" lon="34.951403">
<ele>331</ele>
<time>2023-12-27T00:49:16Z</time></trkpt>
<trkpt lat="31.61291" lon="34.951634">
<ele>330</ele>
<time>2023-12-27T00:49:21Z</time></trkpt>
<trkpt lat="31.61279" lon="34.951719">
<ele>330</ele>
<time>2023-12-27T00:49:24Z</time></trkpt>
<trkpt lat="31.612668" lon="34.951926">
<ele>331</ele>
<time>2023-12-27T00:49:28Z</time></trkpt>
<trkpt lat="31.612449" lon="34.952458">
<ele>333</ele>
<time>2023-12-27T00:49:38Z</time></trkpt>
<trkpt lat="31.61244" lon="34.952711">
<ele>334</ele>
<time>2023-12-27T00:49:43Z</time></trkpt>
<trkpt lat="31.612472" lon="34.952874">
<ele>335</ele>
<time>2023-12-27T00:49:46Z</time></trkpt>
<trkpt lat="31.612472" lon="34.952959">
<ele>335</ele>
<time>2023-12-27T00:49:47Z</time></trkpt>
<trkpt lat="31.61245" lon="34.953083">
<ele>335</ele>
<time>2023-12-27T00:49:49Z</time></trkpt>
<trkpt lat="31.612301" lon="34.95337">
<ele>334</ele>
<time>2023-12-27T00:49:55Z</time></trkpt>
<trkpt lat="31.612222" lon="34.953606">
<ele>334</ele>
<time>2023-12-27T00:49:59Z</time></trkpt>
<trkpt lat="31.612227" lon="34.954108">
<ele>335</ele>
<time>2023-12-27T00:50:08Z</time></trkpt>
<trkpt lat="31.612043" lon="34.953827">
<ele>333</ele>
<time>2023-12-27T00:50:14Z</time></trkpt>
<trkpt lat="31.6119" lon="34.953729">
<ele>332</ele>
<time>2023-12-27T00:50:17Z</time></trkpt>
<trkpt lat="31.611794" lon="34.953701">
<ele>331</ele>
<time>2023-12-27T00:50:19Z</time></trkpt>
<trkpt lat="31.611562" lon="34.953708">
<ele>330</ele>
<time>2023-12-27T00:50:24Z</time></trkpt>
<trkpt lat="31.6115438" lon="34.9538291">
<ele>330</ele>
<time>2023-12-27T00:50:26Z</time></trkpt>
<trkpt lat="31.611415" lon="34.953947">
<ele>331</ele>
<time>2023-12-27T00:50:29Z</time></trkpt>
<trkpt lat="31.609881" lon="34.955864">
<ele>341</ele>
<time>2023-12-27T00:51:14Z</time></trkpt>
<trkpt lat="31.60986" lon="34.956332">
<ele>347</ele>
<time>2023-12-27T00:51:22Z</time></trkpt>
<trkpt lat="31.609779" lon="34.957163">
<ele>352</ele>
<time>2023-12-27T00:51:37Z</time></trkpt>
<trkpt lat="31.609286" lon="34.958001">
<ele>346</ele>
<time>2023-12-27T00:51:54Z</time></trkpt>
<trkpt lat="31.608748" lon="34.958581">
<ele>345</ele>
<time>2023-12-27T00:52:09Z</time></trkpt>
<trkpt lat="31.60821" lon="34.958935">
<ele>344</ele>
<time>2023-12-27T00:52:21Z</time></trkpt>
<trkpt lat="31.607907" lon="34.959501">
<ele>346</ele>
<time>2023-12-27T00:52:32Z</time></trkpt>
<trkpt lat="31.60774" lon="34.960097">
<ele>348</ele>
<time>2023-12-27T00:52:43Z</time></trkpt>
<trkpt lat="31.607728" lon="34.960143">
<ele>348</ele>
<time>2023-12-27T00:52:44Z</time></trkpt>
<trkpt lat="31.607789" lon="34.96284">
<ele>352</ele>
<time>2023-12-27T00:53:30Z</time></trkpt>
<trkpt lat="31.6076118" lon="34.9638988">
<ele>351</ele>
<time>2023-12-27T00:53:48Z</time></trkpt>
<trkpt lat="31.607588" lon="34.964041">
<ele>351</ele>
<time>2023-12-27T00:53:51Z</time></trkpt>
<trkpt lat="31.607579" lon="34.964417">
<ele>352</ele>
<time>2023-12-27T00:53:57Z</time></trkpt>
<trkpt lat="31.607853" lon="34.965103">
<ele>355</ele>
<time>2023-12-27T00:54:10Z</time></trkpt>
<trkpt lat="31.609087" lon="34.966616">
<ele>359</ele>
<time>2023-12-27T00:54:46Z</time></trkpt>
<trkpt lat="31.6102001" lon="34.967711">
<ele>366</ele>
<time>2023-12-27T00:55:15Z</time></trkpt>
<trkpt lat="31.610321" lon="34.96783">
<ele>367</ele>
<time>2023-12-27T00:55:18Z</time></trkpt>
<trkpt lat="31.610932" lon="34.968064">
<ele>368</ele>
<time>2023-12-27T00:55:31Z</time></trkpt>
<trkpt lat="31.611203" lon="34.968028">
<ele>370</ele>
<time>2023-12-27T00:55:36Z</time></trkpt>
<trkpt lat="31.611979" lon="34.968793">
<ele>373</ele>
<time>2023-12-27T00:55:57Z</time></trkpt>
<trkpt lat="31.612305" lon="34.96905">
<ele>372</ele>
<time>2023-12-27T00:56:05Z</time></trkpt>
<trkpt lat="31.612681" lon="34.969187">
<ele>372</ele>
<time>2023-12-27T00:56:13Z</time></trkpt>
<trkpt lat="31.61286" lon="34.969328">
<ele>374</ele>
<time>2023-12-27T00:56:17Z</time></trkpt>
<trkpt lat="31.61301" lon="34.969566">
<ele>374</ele>
<time>2023-12-27T00:56:22Z</time></trkpt>
<trkpt lat="31.613113" lon="34.969681">
<ele>374</ele>
<time>2023-12-27T00:56:25Z</time></trkpt>
<trkpt lat="31.613315" lon="34.969859">
<ele>373</ele>
<time>2023-12-27T00:56:30Z</time></trkpt>
<trkpt lat="31.613468" lon="34.969968">
<ele>372</ele>
<time>2023-12-27T00:56:33Z</time></trkpt>
<trkpt lat="31.613602" lon="34.970029">
<ele>373</ele>
<time>2023-12-27T00:56:36Z</time></trkpt>
<trkpt lat="31.613866" lon="34.970247">
<ele>374</ele>
<time>2023-12-27T00:56:43Z</time></trkpt>
<trkpt lat="31.613931" lon="34.970284">
<ele>375</ele>
<time>2023-12-27T00:56:44Z</time></trkpt>
<trkpt lat="31.614074" lon="34.970287">
<ele>376</ele>
<time>2023-12-27T00:56:47Z</time></trkpt>
<trkpt lat="31.6143348" lon="34.9701871">
<ele>378</ele>
<time>2023-12-27T00:56:53Z</time></trkpt>
<trkpt lat="31.614382" lon="34.970169">
<ele>378</ele>
<time>2023-12-27T00:56:54Z</time></trkpt>
<trkpt lat="31.614577" lon="34.970139">
<ele>379</ele>
<time>2023-12-27T00:56:57Z</time></trkpt>
<trkpt lat="31.61499" lon="34.970121">
<ele>382</ele>
<time>2023-12-27T00:57:06Z</time></trkpt>
<trkpt lat="31.615274" lon="34.970161">
<ele>384</ele>
<time>2023-12-27T00:57:11Z</time></trkpt>
<trkpt lat="31.615491" lon="34.970164">
<ele>386</ele>
<time>2023-12-27T00:57:16Z</time></trkpt>
<trkpt lat="31.615877" lon="34.970257">
<ele>389</ele>
<time>2023-12-27T00:57:24Z</time></trkpt>
<trkpt lat="31.616014" lon="34.970311">
<ele>389</ele>
<time>2023-12-27T00:57:27Z</time></trkpt>
<trkpt lat="31.616262" lon="34.970353">
<ele>390</ele>
<time>2023-12-27T00:57:32Z</time></trkpt>
<trkpt lat="31.616569" lon="34.970356">
<ele>390</ele>
<time>2023-12-27T00:57:38Z</time></trkpt>
<trkpt lat="31.616837" lon="34.970378">
<ele>390</ele>
<time>2023-12-27T00:57:43Z</time></trkpt>
<trkpt lat="31.616941" lon="34.970413">
<ele>391</ele>
<time>2023-12-27T00:57:45Z</time></trkpt>
<trkpt lat="31.617224" lon="34.970462">
<ele>392</ele>
<time>2023-12-27T00:57:51Z</time></trkpt>
<trkpt lat="31.617439" lon="34.970444">
<ele>393</ele>
<time>2023-12-27T00:57:55Z</time></trkpt>
<trkpt lat="31.61758" lon="34.970454">
<ele>393</ele>
<time>2023-12-27T00:57:58Z</time></trkpt>
<trkpt lat="31.617779" lon="34.970358">
<ele>394</ele>
<time>2023-12-27T00:58:03Z</time></trkpt>
<trkpt lat="31.618023" lon="34.970179">
<ele>395</ele>
<time>2023-12-27T00:58:08Z</time></trkpt>
<trkpt lat="31.618305" lon="34.969993">
<ele>394</ele>
<time>2023-12-27T00:58:15Z</time></trkpt>
<trkpt lat="31.618476" lon="34.96984">
<ele>396</ele>
<time>2023-12-27T00:58:19Z</time></trkpt>
<trkpt lat="31.618672" lon="34.969592">
<ele>398</ele>
<time>2023-12-27T00:58:25Z</time></trkpt>
<trkpt lat="31.618755" lon="34.969454">
<ele>399</ele>
<time>2023-12-27T00:58:28Z</time></trkpt>
<trkpt lat="31.618804" lon="34.969253">
<ele>399</ele>
<time>2023-12-27T00:58:31Z</time></trkpt>
<trkpt lat="31.618791" lon="34.969043">
<ele>400</ele>
<time>2023-12-27T00:58:35Z</time></trkpt>
<trkpt lat="31.618826" lon="34.968969">
<ele>400</ele>
<time>2023-12-27T00:58:36Z</time></trkpt>
<trkpt lat="31.619401" lon="34.968468">
<ele>404</ele>
<time>2023-12-27T00:58:51Z</time></trkpt>
<trkpt lat="31.619516" lon="34.968305">
<ele>405</ele>
<time>2023-12-27T00:58:54Z</time></trkpt>
<trkpt lat="31.619842" lon="34.968045">
<ele>409</ele>
<time>2023-12-27T00:59:02Z</time></trkpt>
<trkpt lat="31.620104" lon="34.967695">
<ele>410</ele>
<time>2023-12-27T00:59:10Z</time></trkpt>
<trkpt lat="31.620359" lon="34.967256">
<ele>410</ele>
<time>2023-12-27T00:59:19Z</time></trkpt>
<trkpt lat="31.620329" lon="34.967309">
<ele>410</ele>
<time>2023-12-27T00:59:20Z</time></trkpt>
<trkpt lat="31.620653" lon="34.967647">
<ele>413</ele>
<time>2023-12-27T00:59:29Z</time></trkpt>
<trkpt lat="31.62077" lon="34.967806">
<ele>414</ele>
<time>2023-12-27T00:59:33Z</time></trkpt>
<trkpt lat="31.620943" lon="34.968193">
<ele>416</ele>
<time>2023-12-27T00:59:40Z</time></trkpt>
<trkpt lat="31.620984" lon="34.968337">
<ele>417</ele>
<time>2023-12-27T00:59:43Z</time></trkpt>
<trkpt lat="31.62098" lon="34.96846">
<ele>417</ele>
<time>2023-12-27T00:59:45Z</time></trkpt>
<trkpt lat="31.620941" lon="34.968641">
<ele>418</ele>
<time>2023-12-27T00:59:48Z</time></trkpt>
<trkpt lat="31.62088" lon="34.968753">
<ele>419</ele>
<time>2023-12-27T00:59:50Z</time></trkpt>
<trkpt lat="31.620823" lon="34.969011">
<ele>419</ele>
<time>2023-12-27T00:59:55Z</time></trkpt>
<trkpt lat="31.620733" lon="34.969211">
<ele>419</ele>
<time>2023-12-27T00:59:59Z</time></trkpt>
<trkpt lat="31.620631" lon="34.969555">
<ele>419</ele>
<time>2023-12-27T01:00:05Z</time></trkpt>
<trkpt lat="31.620614" lon="34.969753">
<ele>419</ele>
<time>2023-12-27T01:00:08Z</time></trkpt>
<trkpt lat="31.620612" lon="34.970027">
<ele>420</ele>
<time>2023-12-27T01:00:13Z</time></trkpt>
<trkpt lat="31.620636" lon="34.970266">
<ele>419</ele>
<time>2023-12-27T01:00:17Z</time></trkpt>
<trkpt lat="31.620662" lon="34.970352">
<ele>419</ele>
<time>2023-12-27T01:00:19Z</time></trkpt>
<trkpt lat="31.620832" lon="34.970593">
<ele>420</ele>
<time>2023-12-27T01:00:24Z</time></trkpt>
<trkpt lat="31.621191" lon="34.970945">
<ele>421</ele>
<time>2023-12-27T01:00:33Z</time></trkpt>
<trkpt lat="31.62145" lon="34.971243">
<ele>423</ele>
<time>2023-12-27T01:00:41Z</time></trkpt>
<trkpt lat="31.621502" lon="34.971325">
<ele>424</ele>
<time>2023-12-27T01:00:42Z</time></trkpt>
<trkpt lat="31.621558" lon="34.971512">
<ele>424</ele>
<time>2023-12-27T01:00:46Z</time></trkpt>
<trkpt lat="31.622136" lon="34.97196">
<ele>423</ele>
<time>2023-12-27T01:01:00Z</time></trkpt>
<trkpt lat="31.62246" lon="34.972334">
<ele>420</ele>
<time>2023-12-27T01:01:09Z</time></trkpt>
<trkpt lat="31.622568" lon="34.972486">
<ele>418</ele>
<time>2023-12-27T01:01:12Z</time></trkpt>
<trkpt lat="31.622911" lon="34.972751">
<ele>413</ele>
<time>2023-12-27T01:01:20Z</time></trkpt>
<trkpt lat="31.623263" lon="34.97294">
<ele>408</ele>
<time>2023-12-27T01:01:28Z</time></trkpt>
<trkpt lat="31.62352" lon="34.973029">
<ele>405</ele>
<time>2023-12-27T01:01:33Z</time></trkpt>
<trkpt lat="31.623573" lon="34.973288">
<ele>404</ele>
<time>2023-12-27T01:01:38Z</time></trkpt>
<trkpt lat="31.623561" lon="34.973577">
<ele>402</ele>
<time>2023-12-27T01:01:43Z</time></trkpt>
<trkpt lat="31.623537" lon="34.973676">
<ele>402</ele>
<time>2023-12-27T01:01:45Z</time></trkpt>
<trkpt lat="31.6234817" lon="34.9737987">
<ele>401</ele>
<time>2023-12-27T01:01:47Z</time></trkpt>
<trkpt lat="31.62347" lon="34.97383">
<ele>401</ele>
<time>2023-12-27T01:01:48Z</time></trkpt>
<trkpt lat="31.62337" lon="34.97399">
<ele>401</ele>
<time>2023-12-27T01:01:51Z</time></trkpt>
<trkpt lat="31.62328" lon="34.97418">
<ele>401</ele>
<time>2023-12-27T01:01:55Z</time></trkpt>
<trkpt lat="31.62326" lon="34.97438">
<ele>400</ele>
<time>2023-12-27T01:01:58Z</time></trkpt>
<trkpt lat="31.62327" lon="34.97457">
<ele>400</ele>
<time>2023-12-27T01:02:01Z</time></trkpt>
<trkpt lat="31.62335" lon="34.97472">
<ele>398</ele>
<time>2023-12-27T01:02:04Z</time></trkpt>
<trkpt lat="31.62361" lon="34.97531">
<ele>395</ele>
<time>2023-12-27T01:02:16Z</time></trkpt>
<trkpt lat="31.62365" lon="34.97546">
<ele>395</ele>
<time>2023-12-27T01:02:18Z</time></trkpt>
<trkpt lat="31.62376" lon="34.97562">
<ele>394</ele>
<time>2023-12-27T01:02:22Z</time></trkpt>
<trkpt lat="31.62391" lon="34.97574">
<ele>393</ele>
<time>2023-12-27T01:02:26Z</time></trkpt>
<trkpt lat="31.62419" lon="34.97581">
<ele>391</ele>
<time>2023-12-27T01:02:31Z</time></trkpt>
<trkpt lat="31.62432" lon="34.97582">
<ele>392</ele>
<time>2023-12-27T01:02:34Z</time></trkpt>
<trkpt lat="31.62477" lon="34.97579">
<ele>393</ele>
<time>2023-12-27T01:02:43Z</time></trkpt>
<trkpt lat="31.62669" lon="34.97588">
<ele>401</ele>
<time>2023-12-27T01:03:21Z</time></trkpt>
<trkpt lat="31.62681" lon="34.9759">
<ele>401</ele>
<time>2023-12-27T01:03:24Z</time></trkpt>
<trkpt lat="31.62702" lon="34.97597">
<ele>402</ele>
<time>2023-12-27T01:03:28Z</time></trkpt>
<trkpt lat="31.62701" lon="34.97597">
<ele>402</ele>
<time>2023-12-27T01:03:28Z</time></trkpt>
<trkpt lat="31.62772" lon="34.97637">
<ele>405</ele>
<time>2023-12-27T01:03:44Z</time></trkpt>
<trkpt lat="31.6283" lon="34.97677">
<ele>406</ele>
<time>2023-12-27T01:03:58Z</time></trkpt>
<trkpt lat="31.62843" lon="34.97692">
<ele>407</ele>
<time>2023-12-27T01:04:01Z</time></trkpt>
<trkpt lat="31.62851" lon="34.97704">
<ele>407</ele>
<time>2023-12-27T01:04:04Z</time></trkpt>
<trkpt lat="31.62876" lon="34.97758">
<ele>410</ele>
<time>2023-12-27T01:04:14Z</time></trkpt>
<trkpt lat="31.62882" lon="34.97768">
<ele>410</ele>
<time>2023-12-27T01:04:16Z</time></trkpt>
<trkpt lat="31.62886" lon="34.97772">
<ele>410</ele>
<time>2023-12-27T01:04:18Z</time></trkpt>
<trkpt lat="31.62894" lon="34.97776">
<ele>410</ele>
<time>2023-12-27T01:04:19Z</time></trkpt>
<trkpt lat="31.62908" lon="34.97776">
<ele>410</ele>
<time>2023-12-27T01:04:22Z</time></trkpt>
<trkpt lat="31.62919" lon="34.97772">
<ele>409</ele>
<time>2023-12-27T01:04:24Z</time></trkpt>
<trkpt lat="31.62943" lon="34.97757">
<ele>410</ele>
<time>2023-12-27T01:04:30Z</time></trkpt>
<trkpt lat="31.6297" lon="34.97746">
<ele>411</ele>
<time>2023-12-27T01:04:36Z</time></trkpt>
<trkpt lat="31.6301" lon="34.9774">
<ele>413</ele>
<time>2023-12-27T01:04:44Z</time></trkpt>
<trkpt lat="31.63018" lon="34.97733">
<ele>413</ele>
<time>2023-12-27T01:04:46Z</time></trkpt>
<trkpt lat="31.63026" lon="34.97717">
<ele>413</ele>
<time>2023-12-27T01:04:49Z</time></trkpt>
<trkpt lat="31.63031" lon="34.97696">
<ele>413</ele>
<time>2023-12-27T01:04:53Z</time></trkpt>
<trkpt lat="31.6304" lon="34.97692">
<ele>414</ele>
<time>2023-12-27T01:04:54Z</time></trkpt>
<trkpt lat="31.63088" lon="34.97692">
<ele>420</ele>
<time>2023-12-27T01:05:04Z</time></trkpt>
<trkpt lat="31.63099" lon="34.9769">
<ele>421</ele>
<time>2023-12-27T01:05:06Z</time></trkpt>
<trkpt lat="31.63146" lon="34.9769">
<ele>424</ele>
<time>2023-12-27T01:05:16Z</time></trkpt>
<trkpt lat="31.63168" lon="34.97697">
<ele>425</ele>
<time>2023-12-27T01:05:20Z</time></trkpt>
<trkpt lat="31.63187" lon="34.977">
<ele>425</ele>
<time>2023-12-27T01:05:24Z</time></trkpt>
<trkpt lat="31.63209" lon="34.97711">
<ele>424</ele>
<time>2023-12-27T01:05:29Z</time></trkpt>
<trkpt lat="31.63222" lon="34.97714">
<ele>423</ele>
<time>2023-12-27T01:05:32Z</time></trkpt>
<trkpt lat="31.63265" lon="34.9771">
<ele>421</ele>
<time>2023-12-27T01:05:40Z</time></trkpt>
<trkpt lat="31.63282" lon="34.97702">
<ele>420</ele>
<time>2023-12-27T01:05:44Z</time></trkpt>
<trkpt lat="31.63346" lon="34.9769">
<ele>415</ele>
<time>2023-12-27T01:05:57Z</time></trkpt>
<trkpt lat="31.63391" lon="34.97681">
<ele>411</ele>
<time>2023-12-27T01:06:06Z</time></trkpt>
<trkpt lat="31.63435" lon="34.97667">
<ele>408</ele>
<time>2023-12-27T01:06:15Z</time></trkpt>
<trkpt lat="31.63494" lon="34.97632">
<ele>406</ele>
<time>2023-12-27T01:06:28Z</time></trkpt>
<trkpt lat="31.63557" lon="34.97603">
<ele>405</ele>
<time>2023-12-27T01:06:42Z</time></trkpt>
<trkpt lat="31.63588" lon="34.97593">
<ele>403</ele>
<time>2023-12-27T01:06:48Z</time></trkpt>
<trkpt lat="31.63603" lon="34.97591">
<ele>401</ele>
<time>2023-12-27T01:06:51Z</time></trkpt>
<trkpt lat="31.63617" lon="34.97596">
<ele>400</ele>
<time>2023-12-27T01:06:54Z</time></trkpt>
<trkpt lat="31.6365" lon="34.9763">
<ele>400</ele>
<time>2023-12-27T01:07:03Z</time></trkpt>
<trkpt lat="31.63683" lon="34.97648">
<ele>399</ele>
<time>2023-12-27T01:07:10Z</time></trkpt>
<trkpt lat="31.63696" lon="34.97653">
<ele>399</ele>
<time>2023-12-27T01:07:13Z</time></trkpt>
<trkpt lat="31.63724" lon="34.97672">
<ele>400</ele>
<time>2023-12-27T01:07:20Z</time></trkpt>
<trkpt lat="31.6373" lon="34.97679">
<ele>401</ele>
<time>2023-12-27T01:07:21Z</time></trkpt>
<trkpt lat="31.63754" lon="34.97717">
<ele>404</ele>
<time>2023-12-27T01:07:29Z</time></trkpt>
<trkpt lat="31.63764" lon="34.97739">
<ele>405</ele>
<time>2023-12-27T01:07:34Z</time></trkpt>
<trkpt lat="31.63765" lon="34.9775">
<ele>406</ele>
<time>2023-12-27T01:07:36Z</time></trkpt>
<trkpt lat="31.63765" lon="34.97762">
<ele>407</ele>
<time>2023-12-27T01:07:38Z</time></trkpt>
<trkpt lat="31.63769" lon="34.97771">
<ele>407</ele>
<time>2023-12-27T01:07:39Z</time></trkpt>
<trkpt lat="31.63771" lon="34.97794">
<ele>409</ele>
<time>2023-12-27T01:07:43Z</time></trkpt>
<trkpt lat="31.6377" lon="34.97817">
<ele>411</ele>
<time>2023-12-27T01:07:47Z</time></trkpt>
<trkpt lat="31.6376" lon="34.97862">
<ele>415</ele>
<time>2023-12-27T01:07:55Z</time></trkpt>
<trkpt lat="31.63759" lon="34.97897">
<ele>417</ele>
<time>2023-12-27T01:08:01Z</time></trkpt>
<trkpt lat="31.63766" lon="34.97953">
<ele>420</ele>
<time>2023-12-27T01:08:11Z</time></trkpt>
<trkpt lat="31.6377" lon="34.97961">
<ele>420</ele>
<time>2023-12-27T01:08:12Z</time></trkpt>
<trkpt lat="31.63784" lon="34.97977">
<ele>420</ele>
<time>2023-12-27T01:08:16Z</time></trkpt>
<trkpt lat="31.63802" lon="34.97993">
<ele>421</ele>
<time>2023-12-27T01:08:21Z</time></trkpt>
<trkpt lat="31.63842" lon="34.98019">
<ele>422</ele>
<time>2023-12-27T01:08:30Z</time></trkpt>
<trkpt lat="31.63886" lon="34.98062">
<ele>426</ele>
<time>2023-12-27T01:08:41Z</time></trkpt>
<trkpt lat="31.63893" lon="34.98097">
<ele>427</ele>
<time>2023-12-27T01:08:48Z</time></trkpt>
<trkpt lat="31.63896" lon="34.98154">
<ele>427</ele>
<time>2023-12-27T01:08:57Z</time></trkpt>
<trkpt lat="31.63887" lon="34.9824">
<ele>425</ele>
<time>2023-12-27T01:09:12Z</time></trkpt>
<trkpt lat="31.63879" lon="34.983">
<ele>426</ele>
<time>2023-12-27T01:09:22Z</time></trkpt>
<trkpt lat="31.63879" lon="34.98317">
<ele>426</ele>
<time>2023-12-27T01:09:25Z</time></trkpt>
<trkpt lat="31.63882" lon="34.98328">
<ele>426</ele>
<time>2023-12-27T01:09:27Z</time></trkpt>
<trkpt lat="31.63894" lon="34.9834">
<ele>426</ele>
<time>2023-12-27T01:09:30Z</time></trkpt>
<trkpt lat="31.63909" lon="34.98344">
<ele>424</ele>
<time>2023-12-27T01:09:34Z</time></trkpt>
<trkpt lat="31.6392" lon="34.98341">
<ele>424</ele>
<time>2023-12-27T01:09:36Z</time></trkpt>
<trkpt lat="31.6394" lon="34.98329">
<ele>423</ele>
<time>2023-12-27T01:09:40Z</time></trkpt>
<trkpt lat="31.6396" lon="34.98309">
<ele>421</ele>
<time>2023-12-27T01:09:46Z</time></trkpt>
<trkpt lat="31.63973" lon="34.983">
<ele>421</ele>
<time>2023-12-27T01:09:49Z</time></trkpt>
<trkpt lat="31.64027" lon="34.98276">
<ele>417</ele>
<time>2023-12-27T01:10:00Z</time></trkpt>
<trkpt lat="31.64038" lon="34.98273">
<ele>417</ele>
<time>2023-12-27T01:10:02Z</time></trkpt>
<trkpt lat="31.64051" lon="34.98271">
<ele>416</ele>
<time>2023-12-27T01:10:05Z</time></trkpt>
<trkpt lat="31.64093" lon="34.98278">
<ele>415</ele>
<time>2023-12-27T01:10:14Z</time></trkpt>
<trkpt lat="31.64121" lon="34.98289">
<ele>414</ele>
<time>2023-12-27T01:10:19Z</time></trkpt>
<trkpt lat="31.64155" lon="34.98309">
<ele>413</ele>
<time>2023-12-27T01:10:27Z</time></trkpt>
<trkpt lat="31.64168" lon="34.98319">
<ele>413</ele>
<time>2023-12-27T01:10:30Z</time></trkpt>
<trkpt lat="31.64174" lon="34.98328">
<ele>413</ele>
<time>2023-12-27T01:10:32Z</time></trkpt>
<trkpt lat="31.64181" lon="34.98342">
<ele>414</ele>
<time>2023-12-27T01:10:35Z</time></trkpt>
<trkpt lat="31.64188" lon="34.98368">
<ele>415</ele>
<time>2023-12-27T01:10:40Z</time></trkpt>
<trkpt lat="31.6419" lon="34.98396">
<ele>416</ele>
<time>2023-12-27T01:10:44Z</time></trkpt>
<trkpt lat="31.64192" lon="34.9841">
<ele>416</ele>
<time>2023-12-27T01:10:47Z</time></trkpt>
<trkpt lat="31.64198" lon="34.98422">
<ele>417</ele>
<time>2023-12-27T01:10:49Z</time></trkpt>
<trkpt lat="31.64209" lon="34.98425">
<ele>417</ele>
<time>2023-12-27T01:10:51Z</time></trkpt>
<trkpt lat="31.64218" lon="34.98421">
<ele>417</ele>
<time>2023-12-27T01:10:53Z</time></trkpt>
<trkpt lat="31.64237" lon="34.98403">
<ele>415</ele>
<time>2023-12-27T01:10:58Z</time></trkpt>
<trkpt lat="31.64249" lon="34.98394">
<ele>415</ele>
<time>2023-12-27T01:11:01Z</time></trkpt>
<trkpt lat="31.64277" lon="34.98379">
<ele>416</ele>
<time>2023-12-27T01:11:07Z</time></trkpt>
<trkpt lat="31.64283" lon="34.98372">
<ele>417</ele>
<time>2023-12-27T01:11:09Z</time></trkpt>
<trkpt lat="31.64286" lon="34.98367">
<ele>417</ele>
<time>2023-12-27T01:11:10Z</time></trkpt>
<trkpt lat="31.64288" lon="34.98358">
<ele>416</ele>
<time>2023-12-27T01:11:12Z</time></trkpt>
<trkpt lat="31.6429" lon="34.98323">
<ele>415</ele>
<time>2023-12-27T01:11:18Z</time></trkpt>
<trkpt lat="31.64293" lon="34.98312">
<ele>414</ele>
<time>2023-12-27T01:11:20Z</time></trkpt>
<trkpt lat="31.64303" lon="34.9829">
<ele>414</ele>
<time>2023-12-27T01:11:24Z</time></trkpt>
<trkpt lat="31.64321" lon="34.98275">
<ele>415</ele>
<time>2023-12-27T01:11:28Z</time></trkpt>
<trkpt lat="31.64336" lon="34.98268">
<ele>415</ele>
<time>2023-12-27T01:11:31Z</time></trkpt>
<trkpt lat="31.64352" lon="34.98263">
<ele>415</ele>
<time>2023-12-27T01:11:35Z</time></trkpt>
<trkpt lat="31.64395" lon="34.98257">
<ele>416</ele>
<time>2023-12-27T01:11:43Z</time></trkpt>
<trkpt lat="31.64441" lon="34.98257">
<ele>416</ele>
<time>2023-12-27T01:11:53Z</time></trkpt>
<trkpt lat="31.6447" lon="34.98259">
<ele>416</ele>
<time>2023-12-27T01:11:58Z</time></trkpt>
<trkpt lat="31.64488" lon="34.98263">
<ele>416</ele>
<time>2023-12-27T01:12:02Z</time></trkpt>
<trkpt lat="31.64507" lon="34.98263">
<ele>416</ele>
<time>2023-12-27T01:12:06Z</time></trkpt>
<trkpt lat="31.64527" lon="34.98255">
<ele>416</ele>
<time>2023-12-27T01:12:10Z</time></trkpt>
<trkpt lat="31.64546" lon="34.98237">
<ele>416</ele>
<time>2023-12-27T01:12:15Z</time></trkpt>
<trkpt lat="31.64599" lon="34.9816">
<ele>413</ele>
<time>2023-12-27T01:12:32Z</time></trkpt>
<trkpt lat="31.6463" lon="34.98095">
<ele>412</ele>
<time>2023-12-27T01:12:45Z</time></trkpt>
<trkpt lat="31.64642" lon="34.98078">
<ele>411</ele>
<time>2023-12-27T01:12:48Z</time></trkpt>
<trkpt lat="31.6465" lon="34.98071">
<ele>411</ele>
<time>2023-12-27T01:12:50Z</time></trkpt>
<trkpt lat="31.6466" lon="34.98066">
<ele>411</ele>
<time>2023-12-27T01:12:53Z</time></trkpt>
<trkpt lat="31.64671" lon="34.98066">
<ele>411</ele>
<time>2023-12-27T01:12:55Z</time></trkpt>
<trkpt lat="31.64679" lon="34.98073">
<ele>410</ele>
<time>2023-12-27T01:12:57Z</time></trkpt>
<trkpt lat="31.64692" lon="34.98098">
<ele>408</ele>
<time>2023-12-27T01:13:02Z</time></trkpt>
<trkpt lat="31.64711" lon="34.98153">
<ele>407</ele>
<time>2023-12-27T01:13:12Z</time></trkpt>
<trkpt lat="31.64717" lon="34.98169">
<ele>407</ele>
<time>2023-12-27T01:13:15Z</time></trkpt>
<trkpt lat="31.64728" lon="34.98178">
<ele>407</ele>
<time>2023-12-27T01:13:18Z</time></trkpt>
<trkpt lat="31.64742" lon="34.98179">
<ele>406</ele>
<time>2023-12-27T01:13:20Z</time></trkpt>
<trkpt lat="31.64754" lon="34.98173">
<ele>405</ele>
<time>2023-12-27T01:13:23Z</time></trkpt>
<trkpt lat="31.64778" lon="34.98153">
<ele>403</ele>
<time>2023-12-27T01:13:29Z</time></trkpt>
<trkpt lat="31.64803" lon="34.98141">
<ele>401</ele>
<time>2023-12-27T01:13:34Z</time></trkpt>
<trkpt lat="31.64831" lon="34.98134">
<ele>399</ele>
<time>2023-12-27T01:13:40Z</time></trkpt>
<trkpt lat="31.64863" lon="34.98131">
<ele>397</ele>
<time>2023-12-27T01:13:47Z</time></trkpt>
<trkpt lat="31.64943" lon="34.9813">
<ele>389</ele>
<time>2023-12-27T01:14:03Z</time></trkpt>
<trkpt lat="31.6496" lon="34.98135">
<ele>387</ele>
<time>2023-12-27T01:14:06Z</time></trkpt>
<trkpt lat="31.64976" lon="34.98148">
<ele>384</ele>
<time>2023-12-27T01:14:10Z</time></trkpt>
<trkpt lat="31.64995" lon="34.9817">
<ele>381</ele>
<time>2023-12-27T01:14:15Z</time></trkpt>
<trkpt lat="31.65002" lon="34.98188">
<ele>380</ele>
<time>2023-12-27T01:14:19Z</time></trkpt>
<trkpt lat="31.65009" lon="34.9821">
<ele>379</ele>
<time>2023-12-27T01:14:23Z</time></trkpt>
<trkpt lat="31.65013" lon="34.98249">
<ele>379</ele>
<time>2023-12-27T01:14:29Z</time></trkpt>
<trkpt lat="31.6501" lon="34.98268">
<ele>379</ele>
<time>2023-12-27T01:14:33Z</time></trkpt>
<trkpt lat="31.65" lon="34.98306">
<ele>379</ele>
<time>2023-12-27T01:14:39Z</time></trkpt>
<trkpt lat="31.64999" lon="34.98322">
<ele>379</ele>
<time>2023-12-27T01:14:42Z</time></trkpt>
<trkpt lat="31.65005" lon="34.98331">
<ele>379</ele>
<time>2023-12-27T01:14:44Z</time></trkpt>
<trkpt lat="31.65015" lon="34.98332">
<ele>380</ele>
<time>2023-12-27T01:14:46Z</time></trkpt>
<trkpt lat="31.65045" lon="34.98313">
<ele>381</ele>
<time>2023-12-27T01:14:53Z</time></trkpt>
<trkpt lat="31.65064" lon="34.98306">
<ele>381</ele>
<time>2023-12-27T01:14:57Z</time></trkpt>
<trkpt lat="31.6509" lon="34.98301">
<ele>380</ele>
<time>2023-12-27T01:15:02Z</time></trkpt>
<trkpt lat="31.65119" lon="34.98307">
<ele>381</ele>
<time>2023-12-27T01:15:08Z</time></trkpt>
<trkpt lat="31.65146" lon="34.98323">
<ele>384</ele>
<time>2023-12-27T01:15:14Z</time></trkpt>
<trkpt lat="31.65152" lon="34.9833">
<ele>385</ele>
<time>2023-12-27T01:15:16Z</time></trkpt>
<trkpt lat="31.65169" lon="34.98364">
<ele>389</ele>
<time>2023-12-27T01:15:23Z</time></trkpt>
<trkpt lat="31.65183" lon="34.98409">
<ele>393</ele>
<time>2023-12-27T01:15:31Z</time></trkpt>
<trkpt lat="31.65191" lon="34.98449">
<ele>400</ele>
<time>2023-12-27T01:15:38Z</time></trkpt>
<trkpt lat="31.65197" lon="34.98458">
<ele>401</ele>
<time>2023-12-27T01:15:40Z</time></trkpt>
<trkpt lat="31.65204" lon="34.98466">
<ele>402</ele>
<time>2023-12-27T01:15:42Z</time></trkpt>
<trkpt lat="31.65222" lon="34.98477">
<ele>402</ele>
<time>2023-12-27T01:15:46Z</time></trkpt>
<trkpt lat="31.65242" lon="34.98481">
<ele>400</ele>
<time>2023-12-27T01:15:50Z</time></trkpt>
<trkpt lat="31.65269" lon="34.98494">
<ele>399</ele>
<time>2023-12-27T01:15:56Z</time></trkpt>
<trkpt lat="31.65301" lon="34.98521">
<ele>399</ele>
<time>2023-12-27T01:16:04Z</time></trkpt>
<trkpt lat="31.65324" lon="34.9855">
<ele>400</ele>
<time>2023-12-27T01:16:10Z</time></trkpt>
<trkpt lat="31.6534" lon="34.98578">
<ele>401</ele>
<time>2023-12-27T01:16:16Z</time></trkpt>
<trkpt lat="31.65347" lon="34.98596">
<ele>400</ele>
<time>2023-12-27T01:16:20Z</time></trkpt>
<trkpt lat="31.65356" lon="34.98628">
<ele>399</ele>
<time>2023-12-27T01:16:25Z</time></trkpt>
<trkpt lat="31.65358" lon="34.98653">
<ele>399</ele>
<time>2023-12-27T01:16:30Z</time></trkpt>
<trkpt lat="31.65356" lon="34.98668">
<ele>400</ele>
<time>2023-12-27T01:16:32Z</time></trkpt>
<trkpt lat="31.65352" lon="34.98682">
<ele>400</ele>
<time>2023-12-27T01:16:35Z</time></trkpt>
<trkpt lat="31.65342" lon="34.987">
<ele>400</ele>
<time>2023-12-27T01:16:38Z</time></trkpt>
<trkpt lat="31.65328" lon="34.98719">
<ele>401</ele>
<time>2023-12-27T01:16:43Z</time></trkpt>
<trkpt lat="31.65295" lon="34.98751">
<ele>403</ele>
<time>2023-12-27T01:16:51Z</time></trkpt>
<trkpt lat="31.65268" lon="34.98784">
<ele>404</ele>
<time>2023-12-27T01:16:59Z</time></trkpt>
<trkpt lat="31.65263" lon="34.98793">
<ele>403</ele>
<time>2023-12-27T01:17:01Z</time></trkpt>
<trkpt lat="31.65257" lon="34.98811">
<ele>402</ele>
<time>2023-12-27T01:17:04Z</time></trkpt>
<trkpt lat="31.65253" lon="34.98836">
<ele>400</ele>
<time>2023-12-27T01:17:08Z</time></trkpt>
<trkpt lat="31.65254" lon="34.98855">
<ele>399</ele>
<time>2023-12-27T01:17:12Z</time></trkpt>
<trkpt lat="31.65271" lon="34.98974">
<ele>394</ele>
<time>2023-12-27T01:17:32Z</time></trkpt>
<trkpt lat="31.65271" lon="34.98973">
<ele>394</ele>
<time>2023-12-27T01:17:32Z</time></trkpt>
<trkpt lat="31.65274" lon="34.98993">
<ele>393</ele>
<time>2023-12-27T01:17:36Z</time></trkpt>
<trkpt lat="31.6527" lon="34.99015">
<ele>393</ele>
<time>2023-12-27T01:17:40Z</time></trkpt>
<trkpt lat="31.6526808" lon="34.9902116">
<ele>393</ele>
<time>2023-12-27T01:17:41Z</time></trkpt>
<trkpt lat="31.65265" lon="34.99031">
<ele>393</ele>
<time>2023-12-27T01:17:43Z</time></trkpt>
<trkpt lat="31.65257" lon="34.99048">
<ele>393</ele>
<time>2023-12-27T01:17:46Z</time></trkpt>
<trkpt lat="31.65244" lon="34.99058">
<ele>394</ele>
<time>2023-12-27T01:17:49Z</time></trkpt>
<trkpt lat="31.65254" lon="34.99091">
<ele>393</ele>
<time>2023-12-27T01:17:55Z</time></trkpt>
<trkpt lat="31.65286" lon="34.99141">
<ele>396</ele>
<time>2023-12-27T01:18:06Z</time></trkpt>
<trkpt lat="31.65315" lon="34.99152">
<ele>397</ele>
<time>2023-12-27T01:18:12Z</time></trkpt>
<trkpt lat="31.65326" lon="34.99154">
<ele>397</ele>
<time>2023-12-27T01:18:14Z</time></trkpt>
<trkpt lat="31.65329" lon="34.99095">
<ele>394</ele>
<time>2023-12-27T01:18:24Z</time></trkpt>
<trkpt lat="31.65334" lon="34.99061">
<ele>392</ele>
<time>2023-12-27T01:18:30Z</time></trkpt>
<trkpt lat="31.65366" lon="34.98939">
<ele>391</ele>
<time>2023-12-27T01:18:52Z</time></trkpt>
<trkpt lat="31.6538" lon="34.98901">
<ele>390</ele>
<time>2023-12-27T01:18:59Z</time></trkpt>
<trkpt lat="31.65388" lon="34.98888">
<ele>390</ele>
<time>2023-12-27T01:19:02Z</time></trkpt>
<trkpt lat="31.65432" lon="34.98832">
<ele>387</ele>
<time>2023-12-27T01:19:15Z</time></trkpt>
<trkpt lat="31.65448" lon="34.98811">
<ele>387</ele>
<time>2023-12-27T01:19:19Z</time></trkpt>
<trkpt lat="31.65465" lon="34.98781">
<ele>386</ele>
<time>2023-12-27T01:19:26Z</time></trkpt>
<trkpt lat="31.6548" lon="34.98749">
<ele>384</ele>
<time>2023-12-27T01:19:32Z</time></trkpt>
<trkpt lat="31.6549" lon="34.98725">
<ele>383</ele>
<time>2023-12-27T01:19:36Z</time></trkpt>
<trkpt lat="31.655" lon="34.98695">
<ele>380</ele>
<time>2023-12-27T01:19:42Z</time></trkpt>
<trkpt lat="31.65503" lon="34.98681">
<ele>379</ele>
<time>2023-12-27T01:19:44Z</time></trkpt>
<trkpt lat="31.6551" lon="34.98618">
<ele>377</ele>
<time>2023-12-27T01:19:55Z</time></trkpt>
<trkpt lat="31.65509" lon="34.98603">
<ele>376</ele>
<time>2023-12-27T01:19:58Z</time></trkpt>
<trkpt lat="31.65504" lon="34.98575">
<ele>375</ele>
<time>2023-12-27T01:20:03Z</time></trkpt>
<trkpt lat="31.65472" lon="34.98493">
<ele>377</ele>
<time>2023-12-27T01:20:18Z</time></trkpt>
<trkpt lat="31.65465" lon="34.98482">
<ele>377</ele>
<time>2023-12-27T01:20:20Z</time></trkpt>
<trkpt lat="31.65371" lon="34.98362">
<ele>376</ele>
<time>2023-12-27T01:20:48Z</time></trkpt>
<trkpt lat="31.65363" lon="34.98349">
<ele>375</ele>
<time>2023-12-27T01:20:51Z</time></trkpt>
<trkpt lat="31.65302" lon="34.98229">
<ele>370</ele>
<time>2023-12-27T01:21:15Z</time></trkpt>
<trkpt lat="31.65263" lon="34.98168">
<ele>366</ele>
<time>2023-12-27T01:21:28Z</time></trkpt>
<trkpt lat="31.65256" lon="34.98153">
<ele>365</ele>
<time>2023-12-27T01:21:31Z</time></trkpt>
<trkpt lat="31.65251" lon="34.98138">
<ele>364</ele>
<time>2023-12-27T01:21:33Z</time></trkpt>
<trkpt lat="31.6525" lon="34.98122">
<ele>363</ele>
<time>2023-12-27T01:21:36Z</time></trkpt>
<trkpt lat="31.65254" lon="34.98086">
<ele>364</ele>
<time>2023-12-27T01:21:42Z</time></trkpt>
<trkpt lat="31.65259" lon="34.98054">
<ele>364</ele>
<time>2023-12-27T01:21:48Z</time></trkpt>
<trkpt lat="31.65294" lon="34.97951">
<ele>366</ele>
<time>2023-12-27T01:22:07Z</time></trkpt>
<trkpt lat="31.65321" lon="34.97853">
<ele>361</ele>
<time>2023-12-27T01:22:24Z</time></trkpt>
<trkpt lat="31.65328" lon="34.97834">
<ele>360</ele>
<time>2023-12-27T01:22:28Z</time></trkpt>
<trkpt lat="31.65323" lon="34.97804">
<ele>361</ele>
<time>2023-12-27T01:22:33Z</time></trkpt>
<trkpt lat="31.65301" lon="34.97736">
<ele>361</ele>
<time>2023-12-27T01:22:46Z</time></trkpt>
<trkpt lat="31.65291" lon="34.97678">
<ele>358</ele>
<time>2023-12-27T01:22:56Z</time></trkpt>
<trkpt lat="31.65284" lon="34.97651">
<ele>357</ele>
<time>2023-12-27T01:23:00Z</time></trkpt>
<trkpt lat="31.65283" lon="34.97651">
<ele>357</ele>
<time>2023-12-27T01:23:01Z</time></trkpt>
<trkpt lat="31.65282" lon="34.97644">
<ele>357</ele>
<time>2023-12-27T01:23:02Z</time></trkpt>
<trkpt lat="31.6527" lon="34.97621">
<ele>355</ele>
<time>2023-12-27T01:23:06Z</time></trkpt>
<trkpt lat="31.6525" lon="34.97592">
<ele>353</ele>
<time>2023-12-27T01:23:13Z</time></trkpt>
<trkpt lat="31.6524" lon="34.97569">
<ele>353</ele>
<time>2023-12-27T01:23:17Z</time></trkpt>
<trkpt lat="31.65238" lon="34.97556">
<ele>353</ele>
<time>2023-12-27T01:23:19Z</time></trkpt>
<trkpt lat="31.6524" lon="34.97532">
<ele>352</ele>
<time>2023-12-27T01:23:24Z</time></trkpt>
<trkpt lat="31.65246" lon="34.9751">
<ele>351</ele>
<time>2023-12-27T01:23:28Z</time></trkpt>
<trkpt lat="31.6525" lon="34.97499">
<ele>350</ele>
<time>2023-12-27T01:23:30Z</time></trkpt>
<trkpt lat="31.65301" lon="34.974">
<ele>351</ele>
<time>2023-12-27T01:23:49Z</time></trkpt>
<trkpt lat="31.65306" lon="34.97377">
<ele>350</ele>
<time>2023-12-27T01:23:53Z</time></trkpt>
<trkpt lat="31.65309" lon="34.97322">
<ele>349</ele>
<time>2023-12-27T01:24:03Z</time></trkpt>
<trkpt lat="31.65312" lon="34.97305">
<ele>349</ele>
<time>2023-12-27T01:24:06Z</time></trkpt>
<trkpt lat="31.65324" lon="34.97266">
<ele>348</ele>
<time>2023-12-27T01:24:13Z</time></trkpt>
<trkpt lat="31.6534" lon="34.97224">
<ele>347</ele>
<time>2023-12-27T01:24:21Z</time></trkpt>
<trkpt lat="31.65364" lon="34.97176">
<ele>348</ele>
<time>2023-12-27T01:24:30Z</time></trkpt>
<trkpt lat="31.65369" lon="34.9716">
<ele>348</ele>
<time>2023-12-27T01:24:33Z</time></trkpt>
<trkpt lat="31.65381" lon="34.97092">
<ele>345</ele>
<time>2023-12-27T01:24:45Z</time></trkpt>
<trkpt lat="31.65406" lon="34.97045">
<ele>343</ele>
<time>2023-12-27T01:24:54Z</time></trkpt>
<trkpt lat="31.65436" lon="34.96982">
<ele>342</ele>
<time>2023-12-27T01:25:07Z</time></trkpt>
<trkpt lat="31.65442" lon="34.96967">
<ele>342</ele>
<time>2023-12-27T01:25:09Z</time></trkpt>
<trkpt lat="31.65448" lon="34.96939">
<ele>342</ele>
<time>2023-12-27T01:25:14Z</time></trkpt>
<trkpt lat="31.65452" lon="34.96831">
<ele>342</ele>
<time>2023-12-27T01:25:33Z</time></trkpt>
<trkpt lat="31.65448" lon="34.96812">
<ele>342</ele>
<time>2023-12-27T01:25:36Z</time></trkpt>
<trkpt lat="31.65451" lon="34.96786">
<ele>342</ele>
<time>2023-12-27T01:25:41Z</time></trkpt>
<trkpt lat="31.65457" lon="34.96769">
<ele>342</ele>
<time>2023-12-27T01:25:44Z</time></trkpt>
<trkpt lat="31.65487" lon="34.96714">
<ele>341</ele>
<time>2023-12-27T01:25:55Z</time></trkpt>
<trkpt lat="31.65502" lon="34.96682">
<ele>338</ele>
<time>2023-12-27T01:26:01Z</time></trkpt>
<trkpt lat="31.65548" lon="34.96577">
<ele>340</ele>
<time>2023-12-27T01:26:21Z</time></trkpt>
<trkpt lat="31.65581" lon="34.96497">
<ele>333</ele>
<time>2023-12-27T01:26:36Z</time></trkpt>
<trkpt lat="31.65602" lon="34.96458">
<ele>333</ele>
<time>2023-12-27T01:26:44Z</time></trkpt>
<trkpt lat="31.65637" lon="34.9641">
<ele>332</ele>
<time>2023-12-27T01:26:55Z</time></trkpt>
<trkpt lat="31.65643" lon="34.96399">
<ele>332</ele>
<time>2023-12-27T01:26:57Z</time></trkpt>
<trkpt lat="31.65653" lon="34.96374">
<ele>331</ele>
<time>2023-12-27T01:27:02Z</time></trkpt>
<trkpt lat="31.657" lon="34.96237">
<ele>330</ele>
<time>2023-12-27T01:27:27Z</time></trkpt>
<trkpt lat="31.65707" lon="34.96195">
<ele>329</ele>
<time>2023-12-27T01:27:35Z</time></trkpt>
<trkpt lat="31.65715" lon="34.96152">
<ele>328</ele>
<time>2023-12-27T01:27:42Z</time></trkpt>
<trkpt lat="31.65723" lon="34.96118">
<ele>326</ele>
<time>2023-12-27T01:27:48Z</time></trkpt>
<trkpt lat="31.6574" lon="34.96064">
<ele>324</ele>
<time>2023-12-27T01:27:58Z</time></trkpt>
<trkpt lat="31.6575" lon="34.96035">
<ele>323</ele>
<time>2023-12-27T01:28:03Z</time></trkpt>
<trkpt lat="31.65773" lon="34.95995">
<ele>323</ele>
<time>2023-12-27T01:28:11Z</time></trkpt>
<trkpt lat="31.65789" lon="34.95977">
<ele>323</ele>
<time>2023-12-27T01:28:16Z</time></trkpt>
<trkpt lat="31.65801" lon="34.95967">
<ele>323</ele>
<time>2023-12-27T01:28:19Z</time></trkpt>
<trkpt lat="31.65815" lon="34.95959">
<ele>322</ele>
<time>2023-12-27T01:28:22Z</time></trkpt>
<trkpt lat="31.65841" lon="34.95948">
<ele>322</ele>
<time>2023-12-27T01:28:27Z</time></trkpt>
<trkpt lat="31.65899" lon="34.95928">
<ele>323</ele>
<time>2023-12-27T01:28:40Z</time></trkpt>
<trkpt lat="31.65936" lon="34.95914">
<ele>323</ele>
<time>2023-12-27T01:28:47Z</time></trkpt>
<trkpt lat="31.65944" lon="34.95909">
<ele>323</ele>
<time>2023-12-27T01:28:49Z</time></trkpt>
<trkpt lat="31.65952" lon="34.95901">
<ele>323</ele>
<time>2023-12-27T01:28:51Z</time></trkpt>
<trkpt lat="31.65958" lon="34.95892">
<ele>323</ele>
<time>2023-12-27T01:28:53Z</time></trkpt>
<trkpt lat="31.6596" lon="34.95885">
<ele>323</ele>
<time>2023-12-27T01:28:55Z</time></trkpt>
<trkpt lat="31.65961" lon="34.95877">
<ele>323</ele>
<time>2023-12-27T01:28:56Z</time></trkpt>
<trkpt lat="31.6596" lon="34.95866">
<ele>323</ele>
<time>2023-12-27T01:28:58Z</time></trkpt>
<trkpt lat="31.65956" lon="34.95859">
<ele>323</ele>
<time>2023-12-27T01:28:59Z</time></trkpt>
<trkpt lat="31.65932" lon="34.95832">
<ele>321</ele>
<time>2023-12-27T01:29:06Z</time></trkpt>
<trkpt lat="31.6588" lon="34.95782">
<ele>319</ele>
<time>2023-12-27T01:29:19Z</time></trkpt>
<trkpt lat="31.65862" lon="34.9576">
<ele>318</ele>
<time>2023-12-27T01:29:25Z</time></trkpt>
<trkpt lat="31.65856" lon="34.95747">
<ele>318</ele>
<time>2023-12-27T01:29:27Z</time></trkpt>
<trkpt lat="31.65846" lon="34.95714">
<ele>317</ele>
<time>2023-12-27T01:29:33Z</time></trkpt>
<trkpt lat="31.65842" lon="34.95685">
<ele>316</ele>
<time>2023-12-27T01:29:38Z</time></trkpt>
<trkpt lat="31.65841" lon="34.95666">
<ele>316</ele>
<time>2023-12-27T01:29:41Z</time></trkpt>
<trkpt lat="31.65843" lon="34.95637">
<ele>316</ele>
<time>2023-12-27T01:29:46Z</time></trkpt>
<trkpt lat="31.6585" lon="34.95613">
<ele>316</ele>
<time>2023-12-27T01:29:51Z</time></trkpt>
<trkpt lat="31.65897" lon="34.95519">
<ele>315</ele>
<time>2023-12-27T01:30:09Z</time></trkpt>
<trkpt lat="31.65906" lon="34.95497">
<ele>314</ele>
<time>2023-12-27T01:30:13Z</time></trkpt>
<trkpt lat="31.6591" lon="34.9548">
<ele>313</ele>
<time>2023-12-27T01:30:16Z</time></trkpt>
<trkpt lat="31.65912" lon="34.95443">
<ele>312</ele>
<time>2023-12-27T01:30:23Z</time></trkpt>
<trkpt lat="31.65912" lon="34.95378">
<ele>310</ele>
<time>2023-12-27T01:30:34Z</time></trkpt>
<trkpt lat="31.65916" lon="34.95339">
<ele>309</ele>
<time>2023-12-27T01:30:40Z</time></trkpt>
<trkpt lat="31.65928" lon="34.95273">
<ele>308</ele>
<time>2023-12-27T01:30:52Z</time></trkpt>
<trkpt lat="31.65946" lon="34.95209">
<ele>308</ele>
<time>2023-12-27T01:31:03Z</time></trkpt>
<trkpt lat="31.65957" lon="34.9516">
<ele>306</ele>
<time>2023-12-27T01:31:12Z</time></trkpt>
<trkpt lat="31.65962" lon="34.95147">
<ele>306</ele>
<time>2023-12-27T01:31:15Z</time></trkpt>
<trkpt lat="31.65968" lon="34.95136">
<ele>305</ele>
<time>2023-12-27T01:31:17Z</time></trkpt>
<trkpt lat="31.66006" lon="34.95083">
<ele>301</ele>
<time>2023-12-27T01:31:29Z</time></trkpt>
<trkpt lat="31.66012" lon="34.95077">
<ele>301</ele>
<time>2023-12-27T01:31:30Z</time></trkpt>
<trkpt lat="31.66021" lon="34.95071">
<ele>301</ele>
<time>2023-12-27T01:31:32Z</time></trkpt>
<trkpt lat="31.66041" lon="34.95065">
<ele>301</ele>
<time>2023-12-27T01:31:36Z</time></trkpt>
<trkpt lat="31.66052" lon="34.95064">
<ele>301</ele>
<time>2023-12-27T01:31:39Z</time></trkpt>
<trkpt lat="31.66068" lon="34.95067">
<ele>301</ele>
<time>2023-12-27T01:31:42Z</time></trkpt>
<trkpt lat="31.66107" lon="34.95083">
<ele>303</ele>
<time>2023-12-27T01:31:50Z</time></trkpt>
<trkpt lat="31.66123" lon="34.95087">
<ele>303</ele>
<time>2023-12-27T01:31:53Z</time></trkpt>
<trkpt lat="31.66136" lon="34.95086">
<ele>303</ele>
<time>2023-12-27T01:31:56Z</time></trkpt>
<trkpt lat="31.66173" lon="34.95066">
<ele>304</ele>
<time>2023-12-27T01:32:04Z</time></trkpt>
<trkpt lat="31.66192" lon="34.95051">
<ele>306</ele>
<time>2023-12-27T01:32:09Z</time></trkpt>
<trkpt lat="31.66209" lon="34.95028">
<ele>306</ele>
<time>2023-12-27T01:32:14Z</time></trkpt>
<trkpt lat="31.66215" lon="34.95014">
<ele>306</ele>
<time>2023-12-27T01:32:17Z</time></trkpt>
<trkpt lat="31.66219" lon="34.94998">
<ele>305</ele>
<time>2023-12-27T01:32:19Z</time></trkpt>
<trkpt lat="31.66236" lon="34.94862">
<ele>296</ele>
<time>2023-12-27T01:32:43Z</time></trkpt>
<trkpt lat="31.6625" lon="34.94829">
<ele>294</ele>
<time>2023-12-27T01:32:49Z</time></trkpt>
<trkpt lat="31.66272" lon="34.94791">
<ele>293</ele>
<time>2023-12-27T01:32:57Z</time></trkpt>
<trkpt lat="31.66287" lon="34.94774">
<ele>292</ele>
<time>2023-12-27T01:33:01Z</time></trkpt>
<trkpt lat="31.66327" lon="34.94741">
<ele>290</ele>
<time>2023-12-27T01:33:11Z</time></trkpt>
<trkpt lat="31.66342" lon="34.94737">
<ele>290</ele>
<time>2023-12-27T01:33:14Z</time></trkpt>
<trkpt lat="31.66389" lon="34.94733">
<ele>293</ele>
<time>2023-12-27T01:33:24Z</time></trkpt>
<trkpt lat="31.66398" lon="34.94728">
<ele>293</ele>
<time>2023-12-27T01:33:26Z</time></trkpt>
<trkpt lat="31.66404" lon="34.94718">
<ele>292</ele>
<time>2023-12-27T01:33:28Z</time></trkpt>
<trkpt lat="31.66423" lon="34.94643">
<ele>288</ele>
<time>2023-12-27T01:33:41Z</time></trkpt>
<trkpt lat="31.66431" lon="34.94629">
<ele>288</ele>
<time>2023-12-27T01:33:44Z</time></trkpt>
<trkpt lat="31.66445" lon="34.94616">
<ele>288</ele>
<time>2023-12-27T01:33:47Z</time></trkpt>
<trkpt lat="31.66488" lon="34.94595">
<ele>287</ele>
<time>2023-12-27T01:33:57Z</time></trkpt>
<trkpt lat="31.66541" lon="34.94593">
<ele>286</ele>
<time>2023-12-27T01:34:07Z</time></trkpt>
<trkpt lat="31.66587" lon="34.94585">
<ele>284</ele>
<time>2023-12-27T01:34:17Z</time></trkpt>
<trkpt lat="31.66636" lon="34.94569">
<ele>284</ele>
<time>2023-12-27T01:34:27Z</time></trkpt>
<trkpt lat="31.66744" lon="34.94548">
<ele>284</ele>
<time>2023-12-27T01:34:49Z</time></trkpt>
<trkpt lat="31.66776" lon="34.94556">
<ele>284</ele>
<time>2023-12-27T01:34:55Z</time></trkpt>
<trkpt lat="31.66776" lon="34.94555">
<ele>284</ele>
<time>2023-12-27T01:34:56Z</time></trkpt>
<trkpt lat="31.66795" lon="34.9456">
<ele>284</ele>
<time>2023-12-27T01:34:59Z</time></trkpt>
<trkpt lat="31.66814" lon="34.94562">
<ele>284</ele>
<time>2023-12-27T01:35:03Z</time></trkpt>
<trkpt lat="31.66826" lon="34.94568">
<ele>284</ele>
<time>2023-12-27T01:35:06Z</time></trkpt>
<trkpt lat="31.66839" lon="34.94588">
<ele>285</ele>
<time>2023-12-27T01:35:10Z</time></trkpt>
<trkpt lat="31.6688" lon="34.94517">
<ele>285</ele>
<time>2023-12-27T01:35:25Z</time></trkpt>
<trkpt lat="31.67009" lon="34.94321">
<ele>278</ele>
<time>2023-12-27T01:36:07Z</time></trkpt>
<trkpt lat="31.6693" lon="34.94281">
<ele>276</ele>
<time>2023-12-27T01:36:24Z</time></trkpt>
<trkpt lat="31.66913" lon="34.94251">
<ele>275</ele>
<time>2023-12-27T01:36:30Z</time></trkpt>
<trkpt lat="31.66924" lon="34.94236">
<ele>275</ele>
<time>2023-12-27T01:36:34Z</time></trkpt>
<trkpt lat="31.66917" lon="34.94222">
<ele>276</ele>
<time>2023-12-27T01:36:37Z</time></trkpt>
<trkpt lat="31.66891" lon="34.9419">
<ele>279</ele>
<time>2023-12-27T01:36:44Z</time></trkpt>
<trkpt lat="31.66843" lon="34.94141">
<ele>284</ele>
<time>2023-12-27T01:36:57Z</time></trkpt>
<trkpt lat="31.66843" lon="34.9414">
<ele>284</ele>
<time>2023-12-27T01:36:57Z</time></trkpt>
<trkpt lat="31.66762" lon="34.94057">
<ele>294</ele>
<time>2023-12-27T01:37:19Z</time></trkpt>
<trkpt lat="31.66745" lon="34.94051">
<ele>295</ele>
<time>2023-12-27T01:37:22Z</time></trkpt>
<trkpt lat="31.66732" lon="34.94049">
<ele>297</ele>
<time>2023-12-27T01:37:25Z</time></trkpt>
<trkpt lat="31.66647" lon="34.94048">
<ele>306</ele>
<time>2023-12-27T01:37:42Z</time></trkpt>
<trkpt lat="31.66632" lon="34.94047">
<ele>307</ele>
<time>2023-12-27T01:37:45Z</time></trkpt>
<trkpt lat="31.6658" lon="34.94038">
<ele>311</ele>
<time>2023-12-27T01:37:55Z</time></trkpt>
<trkpt lat="31.66573" lon="34.94034">
<ele>312</ele>
<time>2023-12-27T01:37:57Z</time></trkpt>
<trkpt lat="31.66569" lon="34.94026">
<ele>313</ele>
<time>2023-12-27T01:37:58Z</time></trkpt>
<trkpt lat="31.66574" lon="34.94017">
<ele>313</ele>
<time>2023-12-27T01:38:00Z</time></trkpt>
<trkpt lat="31.66652" lon="34.93997">
<ele>310</ele>
<time>2023-12-27T01:38:16Z</time></trkpt>
<trkpt lat="31.66676" lon="34.93989">
<ele>310</ele>
<time>2023-12-27T01:38:21Z</time></trkpt>
<trkpt lat="31.66694" lon="34.93978">
<ele>309</ele>
<time>2023-12-27T01:38:25Z</time></trkpt>
<trkpt lat="31.66703" lon="34.93969">
<ele>309</ele>
<time>2023-12-27T01:38:28Z</time></trkpt>
<trkpt lat="31.66739" lon="34.93926">
<ele>310</ele>
<time>2023-12-27T01:38:38Z</time></trkpt>
<trkpt lat="31.66748" lon="34.93912">
<ele>310</ele>
<time>2023-12-27T01:38:41Z</time></trkpt>
<trkpt lat="31.66764" lon="34.93878">
<ele>314</ele>
<time>2023-12-27T01:38:48Z</time></trkpt>
<trkpt lat="31.66768" lon="34.93872">
<ele>314</ele>
<time>2023-12-27T01:38:49Z</time></trkpt>
<trkpt lat="31.66774" lon="34.93868">
<ele>315</ele>
<time>2023-12-27T01:38:50Z</time></trkpt>
<trkpt lat="31.66783" lon="34.93868">
<ele>315</ele>
<time>2023-12-27T01:38:52Z</time></trkpt>
<trkpt lat="31.66792" lon="34.93879">
<ele>314</ele>
<time>2023-12-27T01:38:55Z</time></trkpt>
<trkpt lat="31.66815" lon="34.93919">
<ele>309</ele>
<time>2023-12-27T01:39:03Z</time></trkpt>
<trkpt lat="31.66834" lon="34.93944">
<ele>306</ele>
<time>2023-12-27T01:39:09Z</time></trkpt>
<trkpt lat="31.66843" lon="34.93953">
<ele>304</ele>
<time>2023-12-27T01:39:11Z</time></trkpt>
<trkpt lat="31.66863" lon="34.93966">
<ele>303</ele>
<time>2023-12-27T01:39:16Z</time></trkpt>
<trkpt lat="31.66881" lon="34.9397">
<ele>303</ele>
<time>2023-12-27T01:39:19Z</time></trkpt>
<trkpt lat="31.66904" lon="34.93969">
<ele>303</ele>
<time>2023-12-27T01:39:24Z</time></trkpt>
<trkpt lat="31.66911" lon="34.93966">
<ele>304</ele>
<time>2023-12-27T01:39:25Z</time></trkpt>
<trkpt lat="31.66925" lon="34.93956">
<ele>304</ele>
<time>2023-12-27T01:39:29Z</time></trkpt>
<trkpt lat="31.66942" lon="34.93938">
<ele>305</ele>
<time>2023-12-27T01:39:33Z</time></trkpt>
<trkpt lat="31.6695" lon="34.93925">
<ele>305</ele>
<time>2023-12-27T01:39:36Z</time></trkpt>
<trkpt lat="31.66958" lon="34.93903">
<ele>306</ele>
<time>2023-12-27T01:39:40Z</time></trkpt>
<trkpt lat="31.66967" lon="34.93859">
<ele>306</ele>
<time>2023-12-27T01:39:48Z</time></trkpt>
<trkpt lat="31.6697" lon="34.9381">
<ele>307</ele>
<time>2023-12-27T01:39:56Z</time></trkpt>
<trkpt lat="31.6697" lon="34.93783">
<ele>308</ele>
<time>2023-12-27T01:40:01Z</time></trkpt>
<trkpt lat="31.66968" lon="34.93769">
<ele>309</ele>
<time>2023-12-27T01:40:03Z</time></trkpt>
<trkpt lat="31.66957" lon="34.93729">
<ele>310</ele>
<time>2023-12-27T01:40:10Z</time></trkpt>
<trkpt lat="31.66916" lon="34.93622">
<ele>311</ele>
<time>2023-12-27T01:40:30Z</time></trkpt>
<trkpt lat="31.66891" lon="34.93579">
<ele>312</ele>
<time>2023-12-27T01:40:39Z</time></trkpt>
<trkpt lat="31.6687" lon="34.93551">
<ele>310</ele>
<time>2023-12-27T01:40:46Z</time></trkpt>
<trkpt lat="31.66857" lon="34.93539">
<ele>311</ele>
<time>2023-12-27T01:40:49Z</time></trkpt>
<trkpt lat="31.66801" lon="34.93498">
<ele>311</ele>
<time>2023-12-27T01:41:02Z</time></trkpt>
<trkpt lat="31.66785" lon="34.9349">
<ele>311</ele>
<time>2023-12-27T01:41:06Z</time></trkpt>
<trkpt lat="31.66785" lon="34.93489">
<ele>311</ele>
<time>2023-12-27T01:41:06Z</time></trkpt>
<trkpt lat="31.66767" lon="34.9348">
<ele>311</ele>
<time>2023-12-27T01:41:10Z</time></trkpt>
<trkpt lat="31.66758" lon="34.93477">
<ele>311</ele>
<time>2023-12-27T01:41:12Z</time></trkpt>
<trkpt lat="31.66737" lon="34.93478">
<ele>312</ele>
<time>2023-12-27T01:41:16Z</time></trkpt>
<trkpt lat="31.66722" lon="34.93483">
<ele>312</ele>
<time>2023-12-27T01:41:19Z</time></trkpt>
<trkpt lat="31.6667" lon="34.93507">
<ele>313</ele>
<time>2023-12-27T01:41:30Z</time></trkpt>
<trkpt lat="31.66627" lon="34.93531">
<ele>312</ele>
<time>2023-12-27T01:41:40Z</time></trkpt>
<trkpt lat="31.66628" lon="34.93531">
<ele>312</ele>
<time>2023-12-27T01:41:40Z</time></trkpt>
<trkpt lat="31.66624" lon="34.93534">
<ele>312</ele>
<time>2023-12-27T01:41:41Z</time></trkpt>
<trkpt lat="31.66604" lon="34.93539">
<ele>311</ele>
<time>2023-12-27T01:41:45Z</time></trkpt>
<trkpt lat="31.66596" lon="34.93545">
<ele>310</ele>
<time>2023-12-27T01:41:47Z</time></trkpt>
<trkpt lat="31.66607" lon="34.93548">
<ele>311</ele>
<time>2023-12-27T01:41:49Z</time></trkpt>
<trkpt lat="31.66615" lon="34.93568">
<ele>312</ele>
<time>2023-12-27T01:41:53Z</time></trkpt>
<trkpt lat="31.66624" lon="34.93587">
<ele>313</ele>
<time>2023-12-27T01:41:57Z</time></trkpt>
<trkpt lat="31.66657" lon="34.93628">
<ele>318</ele>
<time>2023-12-27T01:42:06Z</time></trkpt>
<trkpt lat="31.66671" lon="34.93669">
<ele>321</ele>
<time>2023-12-27T01:42:14Z</time></trkpt>
<trkpt lat="31.66666" lon="34.93693">
<ele>322</ele>
<time>2023-12-27T01:42:18Z</time></trkpt>
<trkpt lat="31.6665" lon="34.93709">
<ele>321</ele>
<time>2023-12-27T01:42:22Z</time></trkpt>
<trkpt lat="31.66621" lon="34.93726">
<ele>319</ele>
<time>2023-12-27T01:42:29Z</time></trkpt>
<trkpt lat="31.66599" lon="34.93745">
<ele>320</ele>
<time>2023-12-27T01:42:34Z</time></trkpt>
<trkpt lat="31.66541" lon="34.93799">
<ele>321</ele>
<time>2023-12-27T01:42:49Z</time></trkpt>
<trkpt lat="31.66509" lon="34.9383">
<ele>321</ele>
<time>2023-12-27T01:42:57Z</time></trkpt>
<trkpt lat="31.66492" lon="34.93846">
<ele>321</ele>
<time>2023-12-27T01:43:02Z</time></trkpt>
<trkpt lat="31.66468" lon="34.93845">
<ele>320</ele>
<time>2023-12-27T01:43:06Z</time></trkpt>
<trkpt lat="31.66444" lon="34.93856">
<ele>320</ele>
<time>2023-12-27T01:43:12Z</time></trkpt>
<trkpt lat="31.66417" lon="34.93863">
<ele>320</ele>
<time>2023-12-27T01:43:17Z</time></trkpt>
<trkpt lat="31.66393" lon="34.93836">
<ele>318</ele>
<time>2023-12-27T01:43:24Z</time></trkpt>
<trkpt lat="31.66375" lon="34.9379">
<ele>311</ele>
<time>2023-12-27T01:43:32Z</time></trkpt>
<trkpt lat="31.66345" lon="34.9372">
<ele>302</ele>
<time>2023-12-27T01:43:46Z</time></trkpt>
<trkpt lat="31.66329" lon="34.93679">
<ele>296</ele>
<time>2023-12-27T01:43:53Z</time></trkpt>
</trkseg>
</trk>
</gpx>